Flight Track Log - Related Links

Times and Time Zones

All times are in EDT time to prevent confusion due to time zone crossing. See the DAL268 flight status page for this flight to view local times or setup timezone preferences in your user account.

Time Position Orientation Groundspeed Altitude Reporting Facility
EDT Latitude Longitude Course Direction KTS MPH feet Rate Location/Type
Thu 12:42:28 AM 40.6370 -73.7790 North 11 13  Level FlightAware ADS-B
Thu 12:42:48 AM 40.6380 -73.7790 360° North 2 2 19 Level FlightAware ADS-B
Thu 12:43:08 AM 40.6370 -73.7790 180° South 11 13 19 Level FlightAware ADS-B
Thu 12:44:09 AM 40.6360 -73.7790 180° South 12 14 19 Level FlightAware ADS-B
Thu 12:46:00 AM 40.8505 -73.5829 37° Northeast  Level FlightAware Approximate
Thu 12:47:00 AM 40.9622 -73.4755 56° Northeast  Level FlightAware Approximate
Thu 12:48:00 AM 41.0828 -73.3764 30° Northeast  Level FlightAware Approximate
Thu 12:49:00 AM 41.2042 -73.2792 37° Northeast  Level FlightAware Approximate
Thu 12:49:34 AM 40.6360 -73.7780 37° Northeast 11 13  Level FlightAware ADS-B
Thu 12:50:15 AM 40.6350 -73.7770 143° Southeast 16 18 21 Level FlightAware ADS-B
Thu 12:50:51 AM 40.6360 -73.7770 360° North 16 18 21 Level FlightAware ADS-B
Thu 12:51:32 AM 40.6370 -73.7760 37° Northeast 22 25 21 Level FlightAware ADS-B
Thu 12:52:01 AM 40.6380 -73.7750 37° Northeast 28 32 21 Level FlightAware ADS-B
Thu 12:52:44 AM 40.6400 -73.7730 37° Northeast 32 37 21 Level FlightAware ADS-B
Thu 12:52:56 AM 40.6410 -73.7730 360° North 34 39 21 Level FlightAware ADS-B
Thu 12:53:32 AM 40.6430 -73.7710 37° Northeast 18 21 22 Level FlightAware ADS-B
Thu 12:54:12 AM 40.6440 -73.7700 37° Northeast 16 18 22 Level FlightAware ADS-B
Thu 12:55:52 AM 40.6430 -73.7720 37° Northeast 33 38 22 Level FlightAware ADS-B
Thu 12:56:00 AM 40.8531 -73.5802 37° Northeast  Level FlightAware Approximate
Thu 12:56:32 AM 40.6400 -73.7740 207° Southwest 15 17  Level FlightAware ADS-B
Thu 12:57:14 AM 40.6380 -73.7760 217° Southwest 16 18 22 Level FlightAware ADS-B
Thu 12:58:15 AM 40.6360 -73.7790 229° Southwest 18 21 23 Level FlightAware ADS-B
Thu 12:58:56 AM 40.6370 -73.7790 360° North 20 23 23 Level FlightAware ADS-B
Thu 12:59:36 AM 40.6370 -73.7800 270° West 23 Level FlightAware ADS-B
Thu 01:02:00 AM 40.8902 -73.5431 37° Northeast  Level FlightAware Approximate
Thu 01:03:00 AM 41.0027 -73.4387 30° Northeast  Level FlightAware Approximate
Thu 01:04:00 AM 41.1265 -73.3451 21° North  Level FlightAware Approximate
Thu 01:05:00 AM 41.2398 -73.2493 29° Northeast  Level FlightAware Approximate
Thu 01:06:00 AM 41.3493 -73.1503 21° North  Level FlightAware Approximate
Thu 01:07:00 AM 41.4222 -73.0057 56° Northeast  Level FlightAware Approximate
Thu 01:08:00 AM 41.4916 -72.8543 48° Northeast  Level FlightAware Approximate
Thu 01:09:00 AM 41.5671 -72.7057 63° Northeast  Level FlightAware Approximate
Thu 01:10:00 AM 41.6289 -72.5450 63° Northeast  Level FlightAware Approximate
Thu 01:11:00 AM 41.6998 -72.3920 48° Northeast  Level FlightAware Approximate
Thu 01:12:00 AM 41.7702 -72.2419 59° Northeast  Level FlightAware Approximate
Thu 01:13:00 AM 41.8379 -72.0888 59° Northeast  Level FlightAware Approximate
Thu 01:14:00 AM 41.9054 -71.9353 59° Northeast  Level FlightAware Approximate
Thu 01:15:00 AM 41.9803 -71.7891 47° Northeast  Level FlightAware Approximate
Thu 01:16:00 AM 42.0702 -71.6576 47° Northeast  Level FlightAware Approximate
Thu 01:17:00 AM 42.1599 -71.5257 47° Northeast  Level FlightAware Approximate
Thu 01:18:00 AM 42.2515 -71.3960 45° Northeast  Level FlightAware Approximate
Thu 01:19:00 AM 42.3437 -71.2670 49° Northeast  Level FlightAware Approximate
Thu 01:20:00 AM 42.4281 -71.1337 49° Northeast  Level FlightAware Approximate
Thu 01:21:00 AM 42.5123 -71.0001 49° Northeast  Level FlightAware Approximate
Thu 01:22:00 AM 42.5963 -70.8661 50° Northeast  Level FlightAware Approximate
Thu 01:23:00 AM 42.6802 -70.7317 50° Northeast  Level FlightAware Approximate
Thu 01:24:00 AM 42.7680 -70.6020 47° Northeast  Level FlightAware Approximate
Thu 01:25:00 AM 42.8567 -70.4730 48° Northeast  Level FlightAware Approximate
Thu 01:26:00 AM 42.9518 -70.3264 48° Northeast  Level FlightAware Approximate
Thu 01:27:00 AM 43.0466 -70.1794 49° Northeast  Level FlightAware Approximate
Thu 01:28:00 AM 43.1413 -70.0318 49° Northeast  Level FlightAware Approximate
Thu 01:29:00 AM 43.2358 -69.8839 49° Northeast  Level FlightAware Approximate
Thu 01:30:00 AM 43.3301 -69.7354 49° Northeast  Level FlightAware Approximate
Thu 01:31:00 AM 43.4242 -69.5865 49° Northeast  Level FlightAware Approximate
Thu 01:32:00 AM 43.5181 -69.4372 49° Northeast  Level FlightAware Approximate
Thu 01:33:00 AM 43.6118 -69.2874 49° Northeast  Level FlightAware Approximate
Thu 01:34:00 AM 43.7053 -69.1371 49° Northeast  Level FlightAware Approximate
Thu 01:35:00 AM 43.7986 -68.9863 49° Northeast  Level FlightAware Approximate
Thu 01:36:00 AM 43.8918 -68.8351 49° Northeast  Level FlightAware Approximate
Thu 01:37:00 AM 43.9847 -68.6834 50° Northeast  Level FlightAware Approximate
Thu 01:38:00 AM 44.0774 -68.5312 50° Northeast  Level FlightAware Approximate
Thu 01:39:00 AM 44.1699 -68.3786 50° Northeast  Level FlightAware Approximate
Thu 01:40:00 AM 44.2622 -68.2254 50° Northeast  Level FlightAware Approximate
Thu 01:41:00 AM 44.3543 -68.0718 50° Northeast  Level FlightAware Approximate
Thu 01:42:00 AM 44.4462 -67.9177 50° Northeast  Level FlightAware Approximate
Thu 01:43:00 AM 44.5335 -67.7583 53° Northeast  Level FlightAware Approximate
Thu 01:44:00 AM 44.6213 -67.5992 49° Northeast  Level FlightAware Approximate
Thu 01:45:00 AM 44.7159 -67.4476 49° Northeast  Level FlightAware Approximate
Thu 01:46:00 AM 44.8102 -67.2955 49° Northeast  Level FlightAware Approximate
Thu 01:47:00 AM 44.9000 -67.1406 90° East  Level FlightAware Approximate
Thu 01:48:00 AM 44.9933 -66.9892 50° Northeast  Level FlightAware Approximate
Thu 01:49:00 AM 45.0863 -66.8347 50° Northeast  Level FlightAware Approximate
Thu 01:50:00 AM 45.1791 -66.6796 50° Northeast  Level FlightAware Approximate
Thu 01:51:00 AM 45.2716 -66.5241 50° Northeast  Level FlightAware Approximate
Thu 01:52:00 AM 45.3639 -66.3680 50° Northeast  Level FlightAware Approximate
Thu 01:53:00 AM 45.4454 -66.2298 50° Northeast  Level FlightAware Approximate
Thu 01:54:00 AM 45.5266 -66.0911 50° Northeast  Level FlightAware Approximate
Thu 01:55:00 AM 45.6077 -65.9520 50° Northeast  Level FlightAware Approximate
Thu 01:56:00 AM 45.6886 -65.8125 50° Northeast  Level FlightAware Approximate
Thu 01:57:00 AM 45.7693 -65.6726 50° Northeast  Level FlightAware Approximate
Thu 01:58:00 AM 45.8498 -65.5323 50° Northeast  Level FlightAware Approximate
Thu 01:59:00 AM 45.9404 -65.3738 51° Northeast  Level FlightAware Approximate
Thu 02:01:00 AM 40.8072 -73.6095 37° Northeast  Level FlightAware Approximate
Thu 02:01:17 AM 40.6360 -73.7790 37° Northeast  Level FlightAware ADS-B
Thu 02:04:00 AM 40.9262 -73.5071 37° Northeast  Level FlightAware Approximate
Thu 02:05:00 AM 41.0417 -73.4084 30° Northeast  Level FlightAware Approximate
Thu 02:06:00 AM 41.1660 -73.3173 37° Northeast  Level FlightAware Approximate
Thu 02:07:00 AM 41.2852 -73.2139 48° Northeast  Level FlightAware Approximate
Thu 02:08:00 AM 41.3890 -73.0939 72° East  Level FlightAware Approximate
Thu 02:09:29 AM 40.6360 -73.7770 90° East 21 24  Level FlightAware ADS-B
Thu 02:09:53 AM 40.6370 -73.7760 37° Northeast 34 39 253 Level FlightAware ADS-B
Thu 02:10:21 AM 40.6390 -73.7740 37° Northeast 18 21 268 Level FlightAware ADS-B
Thu 02:10:46 AM 40.6410 -73.7730 21° North 19 22 288 Level FlightAware ADS-B
Thu 02:11:27 AM 40.6440 -73.7700 37° Northeast 15 17 309 Level FlightAware ADS-B
Thu 02:11:55 AM 40.6450 -73.7690 37° Northeast 33 38 350 Level FlightAware ADS-B
Thu 02:12:49 AM 40.6480 -73.7680 14° North 26 30 384 Level FlightAware ADS-B
Thu 02:15:00 AM 40.9000 -73.5333 37° Northeast  Level FlightAware Approximate
Thu 02:16:00 AM 41.0133 -73.4304 30° Northeast  Level FlightAware Approximate
Thu 02:16:36 AM 40.5730 -73.8230 30° Northeast 208 239 1,800  Level FlightAware ADS-B
Thu 02:17:00 AM 40.5500 -73.8390 208° Southwest 234 269 2,200 1,071 Climbing FlightAware ADS-B
Thu 02:17:32 AM 40.5143 -73.8478 191° South 276 318 2,800 1,421 Climbing FlightAware ADS-B
Thu 02:17:38 AM 40.5068 -73.8451 165° South 277 319 3,100 2,727 Climbing FlightAware ADS-B
Thu 02:17:43 AM 40.5007 -73.8411 153° Southeast 279 321 3,300 2,000 Climbing FlightAware ADS-B
Thu 02:17:47 AM 40.4962 -73.8385 156° South 283 326 3,400 1,600 Climbing FlightAware ADS-B
Thu 02:17:58 AM 40.4846 -73.8247 138° Southeast 296 341 3,700 1,875 Climbing FlightAware ADS-B
Thu 02:18:03 AM 40.4800 -73.8173 129° Southeast 302 348 3,900 2,400 Climbing FlightAware ADS-B
Thu 02:18:08 AM 40.4771 -73.8109 121° Southeast 307 353 4,100 2,250 Climbing FlightAware ADS-B
Thu 02:18:11 AM 40.4751 -73.8040 111° Southeast 309 356 4,200 2,571 Climbing FlightAware ADS-B
Thu 02:18:15 AM 40.4734 -73.7967 107° East 311 358 4,400 3,000 Climbing FlightAware ADS-B
Thu 02:18:19 AM 40.4723 -73.7893 101° East 311 358 4,600 3,429 Climbing FlightAware ADS-B
Thu 02:18:22 AM 40.4716 -73.7837 99° East 311 358 4,800 3,429 Climbing FlightAware ADS-B
Thu 02:18:26 AM 40.4713 -73.7761 93° East 313 360 5,000 3,000 Climbing FlightAware ADS-B
Thu 02:18:30 AM 40.4717 -73.7683 86° East 315 362 5,200 2,000 Climbing FlightAware ADS-B
Thu 02:18:35 AM 40.4727 -73.7589 82° East 318 366 5,300 2,000 Climbing FlightAware ADS-B
Thu 02:18:39 AM 40.4741 -73.7513 76° East 321 369 5,500 2,250 Climbing FlightAware ADS-B
Thu 02:18:43 AM 40.4760 -73.7458 66° East 323 372 5,600 1,500 Climbing FlightAware ADS-B
Thu 02:18:47 AM 40.4786 -73.7368 69° East 325 374 5,700 1,714 Climbing FlightAware ADS-B
Thu 02:18:50 AM 40.4809 -73.7315 60° Northeast 327 376 5,800 2,571 Climbing FlightAware ADS-B
Thu 02:18:54 AM 40.4843 -73.7249 56° Northeast 329 379 6,000 2,250 Climbing FlightAware ADS-B
Thu 02:18:58 AM 40.4884 -73.7187 49° Northeast 331 381 6,100 2,000 Climbing FlightAware ADS-B
Thu 02:19:03 AM 40.4935 -73.7115 47° Northeast 332 382 6,300 2,571 Climbing FlightAware ADS-B
Thu 02:19:19 AM 40.5131 -73.6904 39° Northeast 332 382 7,000 2,625 Climbing FlightAware ADS-B
Thu 02:19:35 AM 40.5313 -73.6716 38° Northeast 333 383 7,700 2,538 Climbing FlightAware ADS-B
Thu 02:19:45 AM 40.5436 -73.6594 37° Northeast 336 387 8,100 2,211 Climbing FlightAware ADS-B
Thu 02:19:54 AM 40.5560 -73.6481 35° Northeast 339 390 8,400 2,700 Climbing FlightAware ADS-B
Thu 02:20:05 AM 40.5707 -73.6369 30° Northeast 334 384 9,000 3,000 Climbing FlightAware ADS-B
Thu 02:20:20 AM 40.5924 -73.6235 25° Northeast 333 383 9,700 1,765 Climbing FlightAware ADS-B
Thu 02:20:56 AM 40.6447 -73.5916 25° Northeast 354 407 10,500 1,391 Climbing FlightAware ADS-B
Thu 02:21:29 AM 40.6960 -73.5603 25° Northeast 384 442 11,300 1,292 Climbing FlightAware ADS-B
Thu 02:22:01 AM 40.7499 -73.5276 25° Northeast 392 451 11,900 1,608 Climbing FlightAware ADS-B
Thu 02:23:06 AM 40.8663 -73.4561 25° Northeast 425 489 13,900 1,875 Climbing FlightAware ADS-B
Thu 02:23:37 AM 40.9251 -73.4206 25° Northeast 446 513 14,900 1,875 Climbing FlightAware ADS-B
Thu 02:24:10 AM 40.9880 -73.3821 25° Northeast 456 525 15,900 1,821 Climbing FlightAware ADS-B
Thu 02:24:33 AM 41.0311 -73.3555 25° Northeast 463 533 16,600 1,826 Climbing FlightAware ADS-B
Thu 02:24:56 AM 41.0738 -73.3196 32° Northeast 471 542 17,300 1,704 Climbing FlightAware ADS-B
Thu 02:25:54 AM 41.1610 -73.2070 44° Northeast 483 556 18,900 1,680 Climbing FlightAware ADS-B
Thu 02:26:36 AM 41.2280 -73.1060 49° Northeast 493 567 20,100 1,655 Climbing FlightAware ADS-B
Thu 02:26:52 AM 41.2525 -73.0692 48° Northeast 495 570 20,500 1,482 Climbing FlightAware ADS-B
Thu 02:28:01 AM 41.3600 -72.9120 48° Northeast 507 583 22,200 1,364 Climbing FlightAware ADS-B
Thu 02:28:42 AM 41.4250 -72.8240 45° Northeast 516 594 23,000 1,291 Climbing FlightAware ADS-B
Thu 02:29:20 AM 41.4890 -72.7340 46° Northeast 520 598 23,900 1,378 Climbing FlightAware ADS-B
Thu 02:29:56 AM 41.5510 -72.6470 46° Northeast 525 604 24,700 640 Climbing FlightAware ADS-B
Thu 02:30:35 AM 41.6070 -72.5690 46° Northeast 525 604 24,700 1,128 Level FlightAware ADS-B
Thu 02:32:09 AM 41.7670 -72.3390 47° Northeast 541 623 27,200 1,447 Climbing FlightAware ADS-B
Thu 02:32:56 AM 41.8550 -72.2140 47° Northeast 544 626 28,100 1,310 Climbing FlightAware ADS-B
Thu 02:33:36 AM 41.9240 -72.1160 47° Northeast 540 621 29,100 1,425 Climbing FlightAware ADS-B
Thu 02:34:16 AM 41.9930 -72.0160 47° Northeast 537 618 30,000 1,286 Climbing FlightAware ADS-B
Thu 02:35:00 AM 42.0670 -71.9110 46° Northeast 536 617 30,900 698 Climbing FlightAware ADS-B
Thu 02:35:42 AM 42.1380 -71.8080 47° Northeast 535 616 31,000 73 Climbing FlightAware ADS-B
Thu 02:36:22 AM 42.2060 -71.7100 47° Northeast 534 615 31,000  Level FlightAware ADS-B
Thu 02:37:00 AM 42.2710 -71.6150 47° Northeast 537 618 31,000  Level FlightAware ADS-B
Thu 02:37:40 AM 42.3360 -71.5180 48° Northeast 537 618 31,000  Level FlightAware ADS-B
Thu 02:38:16 AM 42.3970 -71.4290 47° Northeast 537 618 31,000  Level FlightAware ADS-B
Thu 02:39:00 AM 42.4710 -71.3200 47° Northeast 540 621 31,000  Level FlightAware ADS-B
Thu 02:39:40 AM 42.5390 -71.2200 47° Northeast 540 621 31,000  Level FlightAware ADS-B
Thu 02:40:22 AM 42.6100 -71.1150 47° Northeast 539 620 31,000  Level FlightAware ADS-B
Thu 02:41:06 AM 42.6830 -71.0050 48° Northeast 539 620 31,000  Level FlightAware ADS-B
Thu 02:41:42 AM 42.7440 -70.9150 47° Northeast 539 620 31,000  Level FlightAware ADS-B
Thu 02:42:26 AM 42.8170 -70.8050 48° Northeast 539 620 31,000  Level FlightAware ADS-B
Thu 02:43:10 AM 42.8920 -70.6940 47° Northeast 539 620 31,000  Level FlightAware ADS-B
Thu 02:43:44 AM 42.9500 -70.6050 48° Northeast 540 621 31,000  Level FlightAware ADS-B
Thu 02:44:28 AM 43.0240 -70.4940 48° Northeast 540 621 31,000  Level FlightAware ADS-B
Thu 02:45:19 AM 43.1050 -70.3690 48° Northeast 540 621 31,000  Level FlightAware ADS-B
Thu 02:45:54 AM 43.1640 -70.2800 48° Northeast 538 619 31,000  Level FlightAware ADS-B
Thu 02:46:40 AM 43.2390 -70.1660 48° Northeast 537 618 31,000  Level FlightAware ADS-B
Thu 02:47:20 AM 43.3050 -70.0640 48° Northeast 536 617 31,000  Level FlightAware ADS-B
Thu 02:47:55 AM 43.3650 -69.9710 48° Northeast 535 616 31,000  Level FlightAware ADS-B
Thu 02:48:40 AM 43.4390 -69.8560 48° Northeast 532 612 31,000  Level FlightAware ADS-B
Thu 02:49:19 AM 43.5000 -69.7620 48° Northeast 532 612 31,000  Level FlightAware ADS-B
Thu 02:50:18 AM 43.5880 -69.6250 48° Northeast 532 612 31,000  Level FlightAware ADS-B
Thu 02:50:54 AM 43.6380 -69.5480 48° Northeast 532 612 31,000  Level FlightAware ADS-B
Thu 02:51:38 AM 43.7250 -69.4100 49° Northeast 535 616 31,000  Level FlightAware ADS-B
Thu 02:52:27 AM 43.7940 -69.3040 48° Northeast 535 616 31,000  Level FlightAware ADS-B
Thu 02:53:04 AM 43.8460 -69.2240 48° Northeast 535 616 31,000  Level FlightAware ADS-B
Thu 02:53:55 AM 43.9180 -69.1130 48° Northeast 535 616 31,000  Level FlightAware ADS-B
Thu 02:54:29 AM 43.9660 -69.0390 48° Northeast 535 616 31,000  Level FlightAware ADS-B
Thu 02:56:39 AM 44.2180 -68.6230 50° Northeast 537 618 31,000  Level FlightAware ADS-B
Thu 02:57:17 AM 44.2800 -68.5200 50° Northeast 538 619 31,000  Level FlightAware ADS-B
Thu 02:58:00 AM 44.3480 -68.4100 49° Northeast 537 618 31,000  Level FlightAware ADS-B
Thu 02:58:41 AM 44.4160 -68.2990 49° Northeast 537 618 31,000  Level FlightAware ADS-B
Thu 02:59:21 AM 44.4810 -68.1930 49° Northeast 537 618 31,000  Level FlightAware ADS-B
Thu 02:59:57 AM 44.5390 -68.0950 50° Northeast 538 619 31,000  Level FlightAware ADS-B
Thu 03:00:39 AM 44.6070 -67.9830 50° Northeast 537 618 31,000  Level FlightAware ADS-B
Thu 03:01:16 AM 44.6660 -67.8880 49° Northeast 538 619 31,000  Level FlightAware ADS-B
Thu 03:01:58 AM 44.7330 -67.7750 50° Northeast 538 619 31,000  Level FlightAware ADS-B
Thu 03:02:36 AM 44.7940 -67.6710 50° Northeast 538 619 31,000  Level FlightAware ADS-B
Thu 03:03:13 AM 44.8460 -67.5860 49° Northeast 537 618 31,000  Level FlightAware ADS-B
Thu 03:04:00 AM 44.9220 -67.4570 50° Northeast 538 619 31,000  Level FlightAware ADS-B
Thu 03:04:57 AM 45.0120 -67.3050 50° Northeast 538 619 31,000  Level FlightAware ADS-B
Thu 03:05:33 AM 45.0610 -67.2220 50° Northeast 538 619 31,000  Level FlightAware ADS-B
Thu 03:06:16 AM 45.1420 -67.0830 50° Northeast 536 617 31,000  Level FlightAware ADS-B
Thu 03:06:57 AM 45.2090 -66.9670 51° Northeast 534 615 31,000  Level FlightAware ADS-B
Thu 03:08:09 AM 45.3190 -66.7780 50° Northeast 536 617 31,000  Level FlightAware ADS-B
Thu 03:08:51 AM 45.3860 -66.6630 50° Northeast 537 618 31,000  Level FlightAware ADS-B
Thu 03:09:29 AM 45.4470 -66.5560 51° Northeast 539 620 31,000  Level FlightAware ADS-B
Thu 03:10:16 AM 45.5210 -66.4270 51° Northeast 540 621 31,000  Level FlightAware ADS-B
Thu 03:10:53 AM 45.5790 -66.3250 51° Northeast 540 621 31,000  Level FlightAware ADS-B
Thu 03:11:32 AM 45.6410 -66.2170 51° Northeast 539 620 31,000  Level FlightAware ADS-B
Thu 03:12:14 AM 45.7080 -66.0980 51° Northeast 539 620 31,000  Level FlightAware ADS-B
Thu 03:12:51 AM 45.7650 -65.9980 51° Northeast 539 620 31,000  Level FlightAware ADS-B
Thu 03:13:28 AM 45.8230 -65.8920 52° Northeast 539 620 31,000  Level FlightAware ADS-B
Thu 03:14:08 AM 45.8860 -65.7800 51° Northeast 540 621 31,000  Level FlightAware ADS-B
Thu 03:14:51 AM 45.9520 -65.6630 51° Northeast 539 620 31,000  Level FlightAware ADS-B
Thu 03:15:37 AM 46.0230 -65.5340 52° Northeast 539 620 31,000  Level FlightAware ADS-B
Thu 03:16:13 AM 46.0740 -65.4420 51° Northeast 540 621 31,000  Level FlightAware ADS-B
Thu 03:17:00 AM 46.1370 -65.3300 51° Northeast 540 621 31,000  Level FlightAware ADS-B
Thu 03:17:39 AM 46.1890 -65.2370 51° Northeast 540 621 31,000  Level FlightAware ADS-B
Thu 03:18:40 AM 46.2700 -65.0910 51° Northeast 540 621 31,000  Level FlightAware ADS-B
Thu 03:19:17 AM 46.3200 -65.0030 51° Northeast 540 621 31,000  Level FlightAware ADS-B
Thu 03:20:01 AM 46.3790 -64.8980 51° Northeast 540 621 31,000  Level FlightAware ADS-B
Thu 03:20:39 AM 46.4290 -64.8070 51° Northeast 540 621 31,000  Level FlightAware ADS-B
Thu 03:21:27 AM 46.4940 -64.6920 51° Northeast 540 621 31,000  Level FlightAware ADS-B
Thu 03:22:01 AM 46.5390 -64.6100 51° Northeast 540 621 31,000  Level FlightAware ADS-B
Thu 03:22:37 AM 46.5870 -64.5240 51° Northeast 540 621 31,000  Level FlightAware ADS-B
Thu 03:23:28 AM 46.6550 -64.4010 51° Northeast 540 621 31,000  Level FlightAware ADS-B
Thu 03:24:05 AM 46.7050 -64.3120 51° Northeast 540 621 31,000  Level FlightAware ADS-B
Thu 03:24:41 AM 46.7530 -64.2260 51° Northeast 540 621 31,000  Level FlightAware ADS-B
Thu 03:25:28 AM 46.8160 -64.1120 51° Northeast 540 621 31,000  Level FlightAware ADS-B
Thu 03:26:01 AM 46.9500 -63.7500 51° Northeast 540 621 31,000  Level Gander Center
Thu 03:26:48 AM 47.0333 -63.6167 47° Northeast 540 621 31,000  Level Moncton Center
Thu 03:27:48 AM 47.1167 -63.4333 56° Northeast 540 621 31,000  Level Moncton Center
Thu 03:28:48 AM 47.2167 -63.2667 49° Northeast 540 621 31,000  Level Moncton Center
Thu 03:29:48 AM 47.2833 -63.0833 62° Northeast 540 621 31,000  Level Moncton Center
Thu 03:30:48 AM 47.3833 -62.8833 54° Northeast 540 621 31,000  Level Moncton Center
Thu 03:31:48 AM 47.4667 -62.7167 53° Northeast 540 621 31,000  Level Moncton Center
Thu 03:32:48 AM 47.5667 -62.5333 51° Northeast 540 621 31,000  Level Moncton Center
Thu 03:33:48 AM 47.6667 -62.3667 48° Northeast 540 621 31,000  Level Moncton Center
Thu 03:34:48 AM 47.7500 -62.1833 56° Northeast 540 621 31,000  Level Moncton Center
Thu 03:35:48 AM 47.8333 -62.0000 56° Northeast 540 621 31,000  Level Moncton Center
Thu 03:36:48 AM 47.9167 -61.8167 56° Northeast 540 621 31,000  Level Moncton Center
Thu 03:37:48 AM 48.0000 -61.6500 53° Northeast 540 621 31,000  Level Moncton Center
Thu 03:38:48 AM 48.1000 -61.4667 51° Northeast 540 621 31,000  Level Moncton Center
Thu 03:39:48 AM 48.1833 -61.2833 56° Northeast 530 610 31,000  Level Moncton Center
Thu 03:40:48 AM 48.2667 -61.1000 56° Northeast 530 610 31,000  Level Moncton Center
Thu 03:41:48 AM 48.3500 -60.9167 56° Northeast 530 610 31,000  Level Moncton Center
Thu 03:42:48 AM 48.4333 -60.7333 56° Northeast 520 598 31,000  Level Moncton Center
Thu 03:48:35 AM 48.9220 -59.7190 56° Northeast 509 586 31,000  Level FlightAware ADS-B
Thu 03:49:15 AM 48.9760 -59.5970 56° Northeast 509 586 31,000  Level FlightAware ADS-B
Thu 03:50:02 AM 49.0340 -59.4670 56° Northeast 507 583 31,000  Level FlightAware ADS-B
Thu 03:51:01 AM 49.1060 -59.3030 56° Northeast 507 583 31,000  Level FlightAware ADS-B
Thu 03:51:40 AM 49.1660 -59.1680 56° Northeast 506 582 31,000  Level FlightAware ADS-B
Thu 03:52:20 AM 49.2190 -59.0460 56° Northeast 506 582 31,000  Level FlightAware ADS-B
Thu 03:53:12 AM 49.2800 -58.9060 56° Northeast 507 583 31,000  Level FlightAware ADS-B
Thu 03:53:50 AM 49.3310 -58.7880 56° Northeast 508 585 31,000  Level FlightAware ADS-B
Thu 03:54:30 AM 49.3880 -58.6560 56° Northeast 511 588 31,000  Level FlightAware ADS-B
Thu 03:55:10 AM 49.4390 -58.5370 57° Northeast 513 590 31,000  Level FlightAware ADS-B
Thu 03:55:55 AM 49.4980 -58.3970 57° Northeast 515 593 31,000  Level FlightAware ADS-B
Thu 03:56:35 AM 49.5500 -58.2770 56° Northeast 516 594 31,000  Level FlightAware ADS-B
Thu 03:57:15 AM 49.6020 -58.1510 57° Northeast 515 593 31,000  Level FlightAware ADS-B
Thu 03:57:55 AM 49.6540 -58.0280 57° Northeast 514 592 31,000  Level FlightAware ADS-B
Thu 03:58:40 AM 49.7100 -57.8960 57° Northeast 513 590 31,000 71 Level FlightAware ADS-B
Thu 03:59:20 AM 49.7640 -57.7660 57° Northeast 515 593 31,100 800 Climbing FlightAware ADS-B
Thu 03:59:55 AM 49.8050 -57.6540 60° Northeast 513 590 32,000 1,477 Climbing FlightAware ADS-B
Thu 04:00:25 AM 49.8380 -57.5610 61° Northeast 511 588 32,700 800 Climbing FlightAware ADS-B
Thu 04:01:10 AM 49.8880 -57.4120 62° Northeast 511 588 33,000 240 Climbing FlightAware ADS-B
Thu 04:01:40 AM 49.9190 -57.3170 63° Northeast 509 586 33,000  Level FlightAware ADS-B
Thu 04:02:25 AM 49.9680 -57.1660 63° Northeast 513 590 33,000  Level FlightAware ADS-B
Thu 04:03:06 AM 50.0100 -57.0380 63° Northeast 513 590 33,000  Level FlightAware ADS-B
Thu 04:03:50 AM 50.0570 -56.8930 63° Northeast 512 589 33,000  Level FlightAware ADS-B
Thu 04:04:31 AM 50.1010 -56.7550 64° Northeast 509 586 33,000  Level FlightAware ADS-B
Thu 04:05:15 AM 50.1480 -56.6080 63° Northeast 507 583 33,000  Level FlightAware ADS-B
Thu 04:05:55 AM 50.1890 -56.4810 63° Northeast 505 581 33,000  Level FlightAware ADS-B
Thu 04:06:30 AM 50.2260 -56.3630 64° Northeast 506 582 33,000  Level FlightAware ADS-B
Thu 04:07:15 AM 50.2720 -56.2190 63° Northeast 507 583 33,000  Level FlightAware ADS-B
Thu 04:07:55 AM 50.3140 -56.0850 64° Northeast 506 582 33,000  Level FlightAware ADS-B
Thu 04:08:30 AM 50.3500 -55.9700 64° Northeast 508 585 33,000  Level FlightAware ADS-B
Thu 04:09:10 AM 50.3910 -55.8370 64° Northeast 509 586 33,000  Level FlightAware ADS-B
Thu 04:09:55 AM 50.4360 -55.6920 64° Northeast 507 583 33,000  Level FlightAware ADS-B
Thu 04:10:40 AM 50.4820 -55.5430 64° Northeast 508 585 33,000  Level FlightAware ADS-B
Thu 04:11:11 AM 50.5050 -55.4660 65° Northeast 509 586 33,000  Level FlightAware ADS-B
Thu 04:12:00 AM 50.5640 -55.2770 64° Northeast 508 585 33,000  Level FlightAware ADS-B
Thu 04:12:45 AM 50.6100 -55.1230 65° Northeast 509 586 33,000  Level FlightAware ADS-B
Thu 04:13:25 AM 50.6500 -54.9920 64° Northeast 510 587 33,000  Level FlightAware ADS-B
Thu 04:14:05 AM 50.6900 -54.8540 65° Northeast 512 589 33,000  Level FlightAware ADS-B
Thu 04:14:42 AM 50.7250 -54.7390 64° Northeast 513 590 33,000  Level FlightAware ADS-B
Thu 04:15:18 AM 50.7620 -54.6170 64° Northeast 517 595 33,000  Level FlightAware ADS-B
Thu 04:16:03 AM 50.8040 -54.4720 65° Northeast 518 596 33,000  Level FlightAware ADS-B
Thu 04:16:41 AM 50.8480 -54.3200 65° Northeast 525 604 33,000  Level FlightAware ADS-B
Thu 04:17:21 AM 50.8830 -54.2010 65° Northeast 525 604 33,000  Level FlightAware ADS-B
Thu 04:18:09 AM 50.9250 -54.0590 65° Northeast 525 604 33,000  Level FlightAware ADS-B
Thu 04:19:01 AM 50.9850 -53.8540 65° Northeast 526 605 33,000  Level FlightAware ADS-B
Thu 04:19:37 AM 51.0160 -53.7470 65° Northeast 526 605 33,000  Level FlightAware ADS-B
Thu 04:20:37 AM 51.0680 -53.5680 65° Northeast 526 605 33,000  Level FlightAware ADS-B
Thu 04:21:13 AM 51.1000 -53.4600 65° Northeast 526 605 33,000  Level FlightAware ADS-B
Thu 04:22:01 AM 51.1420 -53.3170 65° Northeast 526 605 33,000  Level FlightAware ADS-B
Thu 04:22:37 AM 51.1730 -53.2090 65° Northeast 526 605 33,000  Level FlightAware ADS-B
Thu 04:23:46 AM 51.2340 -53.0030 65° Northeast 526 605 33,000  Level FlightAware ADS-B
Thu 04:24:23 AM 51.2660 -52.8920 65° Northeast 526 605 33,000  Level FlightAware ADS-B
Thu 04:25:12 AM 51.3090 -52.7450 65° Northeast 526 605 33,000  Level FlightAware ADS-B
Thu 04:25:36 AM 51.3300 -52.6730 65° Northeast 526 605 33,000  Level FlightAware ADS-B
Thu 04:26:24 AM 51.3720 -52.5290 65° Northeast 526 605 33,000  Level FlightAware ADS-B
Thu 04:27:46 AM 51.4430 -52.2820 65° Northeast 526 605 33,000 764 Level FlightAware ADS-B
Thu 04:29:01 AM 51.5500 -51.6833 65° Northeast 520 598 35,000 889 Climbing Gander Center
Thu 04:30:01 AM 51.6167 -51.4667 64° Northeast 520 598 35,000  Level Gander Center
Thu 04:31:01 AM 51.6667 -51.2667 68° East 530 610 35,000  Level Gander Center
Thu 04:32:01 AM 51.7333 -51.0333 65° Northeast 530 610 35,000  Level Gander Center
Thu 04:33:01 AM 51.7833 -50.8000 71° East 530 610 35,000  Level Gander Center
Thu 04:34:01 AM 51.8333 -50.6000 68° East 530 610 35,000  Level Gander Center
Thu 04:35:01 AM 51.8833 -50.3667 71° East 530 610 35,000  Level Gander Center
Thu 04:36:01 AM 51.9333 -50.1667 68° East 540 621 35,000  Level Gander Center
Thu 04:38:00 AM 52.0374 -49.7364 77° East  Level FlightAware Approximate
Thu 04:45:00 AM 52.2515 -48.1303 77° East  Level FlightAware Approximate
Thu 04:46:00 AM 52.2803 -47.8996 78° East  Level FlightAware Approximate
Thu 04:47:00 AM 52.3086 -47.6686 79° East  Level FlightAware Approximate
Thu 04:48:00 AM 52.3365 -47.4374 79° East  Level FlightAware Approximate
Thu 04:49:00 AM 52.3640 -47.2058 79° East  Level FlightAware Approximate
Thu 04:50:00 AM 52.3910 -46.9740 79° East  Level FlightAware Approximate
Thu 04:51:00 AM 52.4175 -46.7419 79° East  Level FlightAware Approximate
Thu 04:52:00 AM 52.4436 -46.5094 79° East  Level FlightAware Approximate
Thu 04:53:00 AM 52.4692 -46.2768 80° East  Level FlightAware Approximate
Thu 04:54:00 AM 52.4944 -46.0439 80° East  Level FlightAware Approximate
Thu 04:55:00 AM 52.5192 -45.8107 80° East  Level FlightAware Approximate
Thu 04:56:00 AM 52.5435 -45.5772 80° East  Level FlightAware Approximate
Thu 04:57:00 AM 52.5674 -45.3435 80° East  Level FlightAware Approximate
Thu 04:58:00 AM 52.5908 -45.1096 81° East  Level FlightAware Approximate
Thu 04:59:00 AM 52.6138 -44.8754 81° East  Level FlightAware Approximate
Thu 05:00:00 AM 52.6362 -44.6409 81° East  Level FlightAware Approximate
Thu 05:01:00 AM 52.6583 -44.4062 81° East  Level FlightAware Approximate
Thu 05:02:00 AM 52.6798 -44.1713 81° East  Level FlightAware Approximate
Thu 05:03:00 AM 52.7009 -43.9362 81° East  Level FlightAware Approximate
Thu 05:04:00 AM 52.7215 -43.7008 82° East  Level FlightAware Approximate
Thu 05:05:00 AM 52.7417 -43.4652 82° East  Level FlightAware Approximate
Thu 05:06:00 AM 52.7614 -43.2294 82° East  Level FlightAware Approximate
Thu 05:07:00 AM 52.7806 -42.9934 82° East  Level FlightAware Approximate
Thu 05:08:00 AM 52.7993 -42.7571 82° East  Level FlightAware Approximate
Thu 05:09:00 AM 52.8177 -42.5207 82° East  Level FlightAware Approximate
Thu 05:10:00 AM 52.8371 -42.2845 82° East  Level FlightAware Approximate
Thu 05:11:00 AM 52.8561 -42.0480 82° East  Level FlightAware Approximate
Thu 05:12:00 AM 52.8746 -41.8113 83° East  Level FlightAware Approximate
Thu 05:13:00 AM 52.8926 -41.5744 83° East  Level FlightAware Approximate
Thu 05:14:00 AM 52.9101 -41.3373 83° East  Level FlightAware Approximate
Thu 05:15:00 AM 52.9272 -41.1000 83° East  Level FlightAware Approximate
Thu 05:16:00 AM 52.9438 -40.8626 83° East  Level FlightAware Approximate
Thu 05:17:00 AM 52.9599 -40.6249 83° East  Level FlightAware Approximate
Thu 05:18:00 AM 52.9756 -40.3871 84° East  Level FlightAware Approximate
Thu 05:19:00 AM 52.9907 -40.1491 84° East  Level FlightAware Approximate
Thu 05:20:00 AM 53.0033 -39.9099 86° East  Level FlightAware Approximate
Thu 05:21:00 AM 53.0118 -39.6700 87° East  Level FlightAware Approximate
Thu 05:22:00 AM 53.0198 -39.4300 87° East  Level FlightAware Approximate
Thu 05:23:00 AM 53.0274 -39.1900 87° East  Level FlightAware Approximate
Thu 05:24:00 AM 53.0344 -38.9499 87° East  Level FlightAware Approximate
Thu 05:25:00 AM 53.0410 -38.7097 87° East  Level FlightAware Approximate
Thu 05:26:00 AM 53.0471 -38.4694 87° East  Level FlightAware Approximate
Thu 05:27:00 AM 53.0527 -38.2291 88° East  Level FlightAware Approximate
Thu 05:28:00 AM 53.0578 -37.9887 88° East  Level FlightAware Approximate
Thu 05:29:00 AM 53.0624 -37.7482 88° East  Level FlightAware Approximate
Thu 05:30:00 AM 53.0665 -37.5078 88° East  Level FlightAware Approximate
Thu 05:31:00 AM 53.0713 -37.2673 88° East  Level FlightAware Approximate
Thu 05:32:00 AM 53.0757 -37.0267 88° East  Level FlightAware Approximate
Thu 05:33:00 AM 53.0796 -36.7861 88° East  Level FlightAware Approximate
Thu 05:34:00 AM 53.0829 -36.5455 89° East  Level FlightAware Approximate
Thu 05:35:00 AM 53.0858 -36.3049 89° East  Level FlightAware Approximate
Thu 05:36:00 AM 53.0882 -36.0642 89° East  Level FlightAware Approximate
Thu 05:37:00 AM 53.0901 -35.8235 89° East  Level FlightAware Approximate
Thu 05:38:00 AM 53.0916 -35.5827 89° East  Level FlightAware Approximate
Thu 05:39:00 AM 53.0925 -35.3420 90° East  Level FlightAware Approximate
Thu 05:40:00 AM 53.0930 -35.1012 90° East  Level FlightAware Approximate
Thu 05:41:00 AM 53.0930 -34.8605 90° East  Level FlightAware Approximate
Thu 05:42:00 AM 53.0925 -34.6197 90° East  Level FlightAware Approximate
Thu 05:43:00 AM 53.0915 -34.3790 90° East  Level FlightAware Approximate
Thu 05:44:00 AM 53.0900 -34.1383 90° East  Level FlightAware Approximate
Thu 05:45:00 AM 53.0880 -33.8976 91° East  Level FlightAware Approximate
Thu 05:46:00 AM 53.0856 -33.6569 91° East  Level FlightAware Approximate
Thu 05:47:00 AM 53.0826 -33.4162 91° East  Level FlightAware Approximate
Thu 05:48:00 AM 53.0792 -33.1756 91° East  Level FlightAware Approximate
Thu 05:49:00 AM 53.0753 -32.9350 91° East  Level FlightAware Approximate
Thu 05:50:00 AM 53.0709 -32.6945 92° East  Level FlightAware Approximate
Thu 05:51:00 AM 53.0662 -32.4540 92° East  Level FlightAware Approximate
Thu 05:52:00 AM 53.0619 -32.2135 92° East  Level FlightAware Approximate
Thu 05:53:00 AM 53.0572 -31.9731 92° East  Level FlightAware Approximate
Thu 05:54:00 AM 53.0520 -31.7327 92° East  Level FlightAware Approximate
Thu 05:55:00 AM 53.0463 -31.4924 92° East  Level FlightAware Approximate
Thu 05:56:00 AM 53.0401 -31.2521 92° East  Level FlightAware Approximate
Thu 05:57:00 AM 53.0334 -31.0119 93° East  Level FlightAware Approximate
Thu 05:58:00 AM 53.0263 -30.7718 93° East  Level FlightAware Approximate
Thu 05:59:00 AM 53.0187 -30.5322 93° East  Level FlightAware Approximate
Thu 06:00:00 AM 53.0106 -30.2927 93° East  Level FlightAware Approximate
Thu 06:01:00 AM 53.0020 -30.0533 93° East  Level FlightAware Approximate
Thu 06:02:00 AM 53.0076 -29.8148 86° East  Level FlightAware Approximate
Thu 06:03:00 AM 53.0171 -29.5762 86° East  Level FlightAware Approximate
Thu 06:04:00 AM 53.0260 -29.3376 86° East  Level FlightAware Approximate
Thu 06:05:00 AM 53.0345 -29.0988 87° East  Level FlightAware Approximate
Thu 06:06:00 AM 53.0424 -28.8600 87° East  Level FlightAware Approximate
Thu 06:07:00 AM 53.0499 -28.6211 87° East  Level FlightAware Approximate
Thu 06:08:00 AM 53.0570 -28.3820 87° East  Level FlightAware Approximate
Thu 06:09:00 AM 53.0635 -28.1430 87° East  Level FlightAware Approximate
Thu 06:10:00 AM 53.0696 -27.9038 87° East  Level FlightAware Approximate
Thu 06:11:00 AM 53.0752 -27.6646 88° East  Level FlightAware Approximate
Thu 06:12:00 AM 53.0803 -27.4253 88° East  Level FlightAware Approximate
Thu 06:13:00 AM 53.0849 -27.1860 88° East  Level FlightAware Approximate
Thu 06:14:00 AM 53.0891 -26.9466 88° East  Level FlightAware Approximate
Thu 06:15:00 AM 53.0927 -26.7072 88° East  Level FlightAware Approximate
Thu 06:16:00 AM 53.0959 -26.4677 89° East  Level FlightAware Approximate
Thu 06:17:00 AM 53.0986 -26.2282 89° East  Level FlightAware Approximate
Thu 06:18:00 AM 53.1009 -25.9887 89° East  Level FlightAware Approximate
Thu 06:19:00 AM 53.1026 -25.7491 89° East  Level FlightAware Approximate
Thu 06:20:00 AM 53.1039 -25.5096 89° East  Level FlightAware Approximate
Thu 06:21:00 AM 53.1046 -25.2700 90° East  Level FlightAware Approximate
Thu 06:22:00 AM 53.1049 -25.0304 90° East  Level FlightAware Approximate
Thu 06:23:00 AM 53.1048 -24.7909 90° East  Level FlightAware Approximate
Thu 06:24:00 AM 53.1041 -24.5513 90° East  Level FlightAware Approximate
Thu 06:25:00 AM 53.1030 -24.3117 90° East  Level FlightAware Approximate
Thu 06:26:00 AM 53.1013 -24.0722 91° East  Level FlightAware Approximate
Thu 06:27:00 AM 53.0992 -23.8326 91° East  Level FlightAware Approximate
Thu 06:28:00 AM 53.0967 -23.5931 91° East  Level FlightAware Approximate
Thu 06:29:00 AM 53.0936 -23.3537 91° East  Level FlightAware Approximate
Thu 06:30:00 AM 53.0900 -23.1142 91° East  Level FlightAware Approximate
Thu 06:31:00 AM 53.0860 -22.8748 92° East  Level FlightAware Approximate
Thu 06:32:00 AM 53.0815 -22.6355 92° East  Level FlightAware Approximate
Thu 06:33:00 AM 53.0765 -22.3962 92° East  Level FlightAware Approximate
Thu 06:34:00 AM 53.0710 -22.1570 92° East  Level FlightAware Approximate
Thu 06:35:00 AM 53.0651 -21.9178 92° East  Level FlightAware Approximate
Thu 06:36:00 AM 53.0587 -21.6787 92° East  Level FlightAware Approximate
Thu 06:37:00 AM 53.0518 -21.4397 93° East  Level FlightAware Approximate
Thu 06:38:00 AM 53.0444 -21.2007 93° East  Level FlightAware Approximate
Thu 06:39:00 AM 53.0365 -20.9614 93° East  Level FlightAware Approximate
Thu 06:40:00 AM 53.0282 -20.7227 93° East  Level FlightAware Approximate
Thu 06:41:00 AM 53.0194 -20.4840 93° East  Level FlightAware Approximate
Thu 06:42:00 AM 53.0101 -20.2454 94° East  Level FlightAware Approximate
Thu 06:43:00 AM 53.0003 -20.0069 94° East  Level FlightAware Approximate
Thu 06:44:00 AM 52.9992 -19.7679 90° East  Level FlightAware Approximate
Thu 06:45:00 AM 52.9980 -19.5289 90° East  Level FlightAware Approximate
Thu 06:46:00 AM 52.9962 -19.2900 91° East  Level FlightAware Approximate
Thu 06:47:00 AM 52.9940 -19.0510 91° East  Level FlightAware Approximate
Thu 06:48:00 AM 52.9913 -18.8121 91° East  Level FlightAware Approximate
Thu 06:49:00 AM 52.9882 -18.5732 91° East  Level FlightAware Approximate
Thu 06:50:00 AM 52.9845 -18.3344 91° East  Level FlightAware Approximate
Thu 06:51:00 AM 52.9804 -18.0956 92° East  Level FlightAware Approximate
Thu 06:52:00 AM 52.9758 -17.8568 92° East  Level FlightAware Approximate
Thu 06:53:00 AM 52.9707 -17.6181 92° East  Level FlightAware Approximate
Thu 06:54:00 AM 52.9651 -17.3795 92° East  Level FlightAware Approximate
Thu 06:55:00 AM 52.9591 -17.1409 92° East  Level FlightAware Approximate
Thu 06:56:00 AM 52.9525 -16.9024 93° East  Level FlightAware Approximate
Thu 06:57:00 AM 52.9455 -16.6640 93° East  Level FlightAware Approximate
Thu 06:58:00 AM 52.9381 -16.4256 93° East  Level FlightAware Approximate
Thu 06:59:00 AM 52.9301 -16.1874 93° East  Level FlightAware Approximate
Thu 07:00:00 AM 52.9217 -15.9492 93° East  Level FlightAware Approximate
Thu 07:01:00 AM 52.9128 -15.7111 93° East  Level FlightAware Approximate
Thu 07:02:00 AM 52.9034 -15.4731 94° East  Level FlightAware Approximate
Thu 07:03:00 AM 52.8936 -15.2352 94° East  Level FlightAware Approximate
Thu 07:04:00 AM 52.8832 -14.9975 94° East  Level FlightAware Approximate
Thu 07:05:00 AM 52.8730 -14.7597 94° East  Level FlightAware Approximate
Thu 07:06:00 AM 52.8623 -14.5221 94° East  Level FlightAware Approximate
Thu 07:07:00 AM 52.8511 -14.2846 94° East  Level FlightAware Approximate
Thu 07:08:00 AM 52.8395 -14.0473 95° East  Level FlightAware Approximate
Thu 07:08:40 AM 52.8650 -12.2530 96° East 541 623 35,000  Level FlightAware ADS-B
Thu 07:09:00 AM 52.8274 -13.8101 95° East  Level FlightAware Approximate
Thu 07:10:00 AM 52.8148 -13.5730 95° East  Level FlightAware Approximate
Thu 07:11:00 AM 52.8017 -13.3360 95° East  Level FlightAware Approximate
Thu 07:12:00 AM 52.7882 -13.0992 95° East  Level FlightAware Approximate
Thu 07:13:00 AM 52.7742 -12.8625 96° East  Level FlightAware Approximate
Thu 07:14:00 AM 52.7597 -12.6260 96° East  Level FlightAware Approximate
Thu 07:15:00 AM 52.7448 -12.3896 96° East  Level FlightAware Approximate
Thu 07:16:00 AM 52.7295 -12.1534 96° East  Level FlightAware Approximate
Thu 07:16:13 AM 52.6820 -10.3690 98° East 549 632 35,000  Level FlightAware ADS-B
Thu 07:16:49 AM 52.6660 -10.2160 100° East 550 633 35,000  Level FlightAware ADS-B
Thu 07:17:37 AM 52.6400 -9.9690 100° East 550 633 35,000  Level FlightAware ADS-B
Thu 07:18:19 AM 52.6200 -9.7880 100° East 551 634 35,000  Level FlightAware ADS-B
Thu 07:19:00 AM 52.6010 -9.6230 101° East 552 635 35,000  Level FlightAware ADS-B
Thu 07:19:39 AM 52.5830 -9.4580 100° East 552 635 35,000 152 Level FlightAware ADS-B
Thu 07:20:19 AM 52.5640 -9.2940 101° East 549 632 35,200 419 Climbing FlightAware ADS-B
Thu 07:21:05 AM 52.5430 -9.1100 101° East 549 632 35,600 532 Climbing FlightAware ADS-B
Thu 07:21:38 AM 52.5258 -8.9647 101° East 492 566 35,900 514 Climbing FlightAware UK
Thu 07:21:40 AM 52.5260 -8.9660 101° East 552 635 35,900 625 Level FlightAware ADS-B
Thu 07:22:26 AM 52.5050 -8.7800 100° East 557 641 36,400 643 Climbing FlightAware ADS-B
Thu 07:23:04 AM 52.4850 -8.6140 100° East 558 642 36,800 571 Climbing FlightAware ADS-B
Thu 07:23:08 AM 52.4820 -8.5910 100° East 502 578 36,800 353 Level FlightAware UK
Thu 07:23:38 AM 52.4669 -8.4668 100° East 502 578 37,000 316 Climbing FlightAware UK
Thu 07:23:46 AM 52.4640 -8.4450 100° East 553 636 37,000  Level FlightAware ADS-B
Thu 07:24:31 AM 52.4410 -8.2600 101° East 551 634 37,000  Level FlightAware ADS-B
Thu 07:25:08 AM 52.4211 -8.0963 101° East 494 568 37,000  Level FlightAware UK
Thu 07:25:11 AM 52.4210 -8.1000 101° East 554 638 37,000  Level FlightAware ADS-B
Thu 07:25:44 AM 52.4026 -7.9491 101° East 496 571 37,000  Level FlightAware UK
Thu 07:25:53 AM 52.3980 -7.9150 101° East 554 638 37,000  Level FlightAware ADS-B
Thu 07:26:29 AM 52.3790 -7.7670 102° East 555 639 37,000  Level FlightAware ADS-B
Thu 07:27:13 AM 52.3560 -7.5870 102° East 557 641 37,000  Level FlightAware ADS-B
Thu 07:27:44 AM 52.3392 -7.4565 102° East 496 571 37,000  Level FlightAware UK
Thu 07:27:53 AM 52.3350 -7.4260 102° East 558 642 37,000  Level FlightAware ADS-B
Thu 07:28:32 AM 52.3140 -7.2650 102° East 559 643 37,000  Level FlightAware ADS-B
Thu 07:29:15 AM 52.2897 -7.0837 102° East 498 573 37,000  Level FlightAware UK
Thu 07:29:16 AM 52.2890 -7.0840 102° East 561 646 37,000  Level FlightAware ADS-B
Thu 07:30:00 AM 52.2650 -6.9020 102° East 561 646 37,000  Level FlightAware ADS-B
Thu 07:30:44 AM 52.2390 -6.7160 103° East 562 647 37,000  Level FlightAware ADS-B
Thu 07:31:15 AM 52.2216 -6.5886 103° East 498 573 37,000  Level FlightAware UK
Thu 07:31:20 AM 52.2200 -6.5760 103° East 562 647 37,000  Level FlightAware ADS-B
Thu 07:32:07 AM 52.1920 -6.3780 103° East 563 648 37,000  Level FlightAware ADS-B
Thu 07:32:45 AM 52.1694 -6.2172 103° East 500 575 37,000  Level FlightAware UK
Thu 07:32:47 AM 52.1680 -6.2090 103° East 563 648 37,000  Level FlightAware ADS-B
Thu 07:33:31 AM 52.1420 -6.0280 103° East 562 647 37,000  Level FlightAware ADS-B
Thu 07:34:13 AM 52.1170 -5.8550 103° East 562 647 37,000  Level FlightAware ADS-B
Thu 07:34:45 AM 52.0977 -5.7224 103° East 500 575 37,000  Level FlightAware UK
Thu 07:34:55 AM 52.0920 -5.6860 103° East 564 649 37,000  Level FlightAware ADS-B
Thu 07:35:34 AM 52.0720 -5.5240 101° East 565 650 37,000  Level FlightAware ADS-B
Thu 07:36:18 AM 52.0520 -5.3400 100° East 565 650 37,000  Level FlightAware ADS-B
Thu 07:36:57 AM 52.0341 -5.1727 100° East 500 575 37,000  Level FlightAware UK
Thu 07:36:59 AM 52.0340 -5.1730 100° East 566 651 37,000  Level FlightAware ADS-B
Thu 07:37:42 AM 52.0140 -4.9890 100° East 566 651 37,000  Level FlightAware ADS-B
Thu 07:38:18 AM 51.9980 -4.8390 100° East 566 651 37,000  Level FlightAware ADS-B
Thu 07:38:59 AM 51.9790 -4.6720 100° East 566 651 37,000  Level FlightAware ADS-B
Thu 07:39:40 AM 51.9600 -4.4970 100° East 565 650 37,000  Level FlightAware ADS-B
Thu 07:40:15 AM 51.9430 -4.3445 100° East 500 575 37,000  Level FlightAware UK
Thu 07:40:20 AM 51.9420 -4.3310 100° East 564 649 37,000  Level FlightAware ADS-B
Thu 07:40:55 AM 51.9250 -4.1810 100° East 563 648 37,000  Level FlightAware ADS-B
Thu 07:40:57 AM 51.9234 -4.1702 100° East 500 575 37,000  Level FlightAware UK
Thu 07:41:07 AM 51.9182 -4.1319 103° East 562 647 37,000  Level FlightAware ADS-B
Thu 07:41:39 AM 51.9002 -3.9981 103° East 498 573 37,000  Level FlightAware UK
Thu 07:41:42 AM 51.8990 -3.9930 103° East 560 644 37,000  Level FlightAware ADS-B
Thu 07:42:22 AM 51.8770 -3.8300 102° East 559 643 37,000  Level FlightAware ADS-B
Thu 07:43:06 AM 51.8520 -3.6510 103° East 559 643 37,000  Level FlightAware ADS-B
Thu 07:43:45 AM 51.8290 -3.4843 103° East 496 571 37,000  Level FlightAware UK
Thu 07:43:46 AM 51.8290 -3.4880 103° East 559 643 37,000  Level FlightAware ADS-B
Thu 07:44:30 AM 51.8040 -3.3090 103° East 559 643 37,000  Level FlightAware ADS-B
Thu 07:45:12 AM 51.7800 -3.1376 103° East 561 646 37,000  Level FlightAware ADS-B
Thu 07:45:47 AM 51.7594 -2.9909 103° East 563 648 37,000  Level FlightAware ADS-B
Thu 07:46:17 AM 51.7419 -2.8679 103° East 566 651 37,000  Level FlightAware ADS-B
Thu 07:46:52 AM 51.7212 -2.7242 103° East 567 652 37,000  Level FlightAware ADS-B
Thu 07:47:24 AM 51.7022 -2.5928 103° East 566 651 37,000  Level FlightAware ADS-B
Thu 07:47:56 AM 51.6831 -2.4661 104° East 565 650 37,000  Level FlightAware ADS-B
Thu 07:48:30 AM 51.6623 -2.3231 103° East 566 651 37,000  Level FlightAware ADS-B
Thu 07:48:56 AM 51.6472 -2.2159 103° East 568 654 37,000  Level FlightAware ADS-B
Thu 07:49:27 AM 51.6345 -2.0866 99° East 570 656 37,000  Level FlightAware ADS-B
Thu 07:49:58 AM 51.6226 -1.9564 98° East 571 657 37,000  Level FlightAware ADS-B
Thu 07:50:29 AM 51.6099 -1.8268 99° East 571 657 37,000  Level FlightAware ADS-B
Thu 07:50:59 AM 51.5971 -1.7015 99° East 571 657 37,000  Level FlightAware ADS-B
Thu 07:51:33 AM 51.5833 -1.5591 99° East 572 658 37,000  Level FlightAware ADS-B
Thu 07:52:05 AM 51.5705 -1.4291 99° East 571 657 37,000  Level FlightAware ADS-B
Thu 07:52:36 AM 51.5575 -1.2958 99° East 571 657 37,000  Level FlightAware ADS-B
Thu 07:53:07 AM 51.5448 -1.1702 99° East 570 656 37,000  Level FlightAware ADS-B
Thu 07:53:37 AM 51.5317 -1.0415 99° East 570 656 37,000  Level FlightAware ADS-B
Thu 07:54:08 AM 51.5185 -0.9125 99° East 570 656 37,000  Level FlightAware ADS-B
Thu 07:54:39 AM 51.5051 -0.7836 99° East 569 655 37,000  Level FlightAware ADS-B
Thu 07:55:11 AM 51.4912 -0.6506 99° East 569 655 37,000  Level FlightAware ADS-B
Thu 07:55:42 AM 51.4777 -0.5266 100° East 567 652 37,000  Level FlightAware ADS-B
Thu 07:56:12 AM 51.4642 -0.3983 100° East 566 651 37,000  Level FlightAware ADS-B
Thu 07:56:43 AM 51.4504 -0.2706 100° East 565 650 37,000  Level FlightAware ADS-B
Thu 07:57:14 AM 51.4368 -0.1473 100° East 564 649 37,000  Level FlightAware ADS-B
Thu 07:57:44 AM 51.4230 -0.0200 100° East 563 648 37,000  Level FlightAware ADS-B
Thu 07:58:14 AM 51.4093 0.1028 100° East 562 647 37,000  Level FlightAware ADS-B
Thu 07:58:45 AM 51.3953 0.2293 100° East 562 647 37,000  Level FlightAware ADS-B
Thu 07:59:18 AM 51.3800 0.3639 100° East 561 646 37,000  Level FlightAware ADS-B
Thu 07:59:49 AM 51.3652 0.4901 101° East 559 643 37,000  Level FlightAware ADS-B
Thu 08:00:24 AM 51.3490 0.6319 100° East 557 641 37,000  Level FlightAware ADS-B
Thu 08:00:55 AM 51.3344 0.7527 101° East 555 639 37,000  Level FlightAware ADS-B
Thu 08:01:27 AM 51.3190 0.8852 100° East 554 638 37,000  Level FlightAware ADS-B
Thu 08:01:57 AM 51.3046 1.0054 101° East 552 635 37,000  Level FlightAware ADS-B
Thu 08:02:30 AM 51.2888 1.1367 101° East 550 633 37,000  Level FlightAware ADS-B
Thu 08:03:09 AM 51.2710 1.2880 101° East 548 631 37,000  Level FlightAware ADS-B
Thu 08:03:49 AM 51.2496 1.4494 101° East 496 571 37,000  Level FlightAware UK
Thu 08:03:51 AM 51.2480 1.4530 101° East 544 626 37,000  Level FlightAware ADS-B
Thu 08:04:25 AM 51.2280 1.5810 101° East 544 626 37,000  Level FlightAware ADS-B
Thu 08:04:31 AM 51.2231 1.6129 101° East 496 571 37,000  Level FlightAware UK
Thu 08:05:07 AM 51.2010 1.7523 101° East 498 573 37,000  Level FlightAware UK
Thu 08:05:28 AM 51.1880 1.8320 101° East 541 623 37,000  Level FlightAware ADS-B
Thu 08:06:31 AM 51.1496 2.0768 101° East 498 573 37,000  Level FlightAware UK
Thu 08:06:54 AM 51.1430 2.1160 101° East 541 623 37,000  Level FlightAware ADS-B
Thu 08:07:31 AM 51.1133 2.3068 101° East 496 571 37,000  Level FlightAware UK
Thu 08:07:40 AM 51.1190 2.2700 101° East 536 617 37,000  Level FlightAware ADS-B
Thu 08:08:19 AM 51.0839 2.4887 101° East 496 571 37,000  Level FlightAware UK
Thu 08:08:20 AM 51.0930 2.4260 101° East 534 615 37,000  Level FlightAware ADS-B
Thu 08:09:07 AM 51.0539 2.6710 101° East 496 571 37,000  Level FlightAware UK
Thu 08:09:26 AM 51.0520 2.6840 101° East 533 613 37,000  Level FlightAware ADS-B
Thu 08:11:31 AM 50.9638 3.2139 101° East 498 573 37,000  Level FlightAware UK
Thu 08:11:33 AM 50.9720 3.1620 101° East 530 610 37,000  Level FlightAware ADS-B
Thu 08:12:13 AM 50.9373 3.3715 101° East 498 573 37,000  Level FlightAware UK
Thu 08:13:02 AM 50.9210 3.4840 101° East 530 610 37,000  Level FlightAware ADS-B
Thu 08:13:47 AM 50.8830 3.6840 107° East 526 605 37,000  Level FlightAware ADS-B
Thu 08:14:26 AM 50.8560 3.8390 105° East 522 601 37,000  Level FlightAware ADS-B
Thu 08:14:55 AM 50.8350 3.9610 105° East 521 600 37,000  Level FlightAware ADS-B
Thu 08:15:45 AM 50.8010 4.1500 106° East 519 597 37,000  Level FlightAware ADS-B
Thu 08:16:25 AM 50.7750 4.2960 106° East 518 596 37,000  Level FlightAware ADS-B
Thu 08:17:07 AM 50.7480 4.4410 106° East 517 595 37,000  Level FlightAware ADS-B
Thu 08:17:44 AM 50.7236 4.5838 106° East 500 575 37,000  Level FlightAware UK
Thu 08:17:47 AM 50.7230 4.5870 106° East 517 595 37,000  Level FlightAware ADS-B
Thu 08:18:26 AM 50.6963 4.7362 106° East 498 573 37,000  Level FlightAware UK
Thu 08:18:32 AM 50.6920 4.7490 106° East 516 594 37,000  Level FlightAware ADS-B
Thu 08:19:16 AM 50.6650 4.8970 106° East 515 593 37,000  Level FlightAware ADS-B
Thu 08:19:52 AM 50.6380 5.0360 107° East 515 593 37,000  Level FlightAware ADS-B
Thu 08:20:36 AM 50.5890 5.1730 119° Southeast 508 585 37,000  Level FlightAware ADS-B
Thu 08:21:17 AM 50.5310 5.3040 125° Southeast 513 590 37,000  Level FlightAware ADS-B
Thu 08:21:59 AM 50.4760 5.4340 124° Southeast 512 589 37,000  Level FlightAware ADS-B
Thu 08:22:44 AM 50.4160 5.5770 123° Southeast 513 590 37,000  Level FlightAware ADS-B
Thu 08:23:20 AM 50.3680 5.6830 125° Southeast 514 592 37,000  Level FlightAware ADS-B
Thu 08:24:04 AM 50.3050 5.8190 126° Southeast 515 593 37,000  Level FlightAware ADS-B
Thu 08:24:48 AM 50.2440 5.9530 125° Southeast 516 594 37,000  Level FlightAware ADS-B
Thu 08:25:33 AM 50.1830 6.0860 126° Southeast 517 595 37,000  Level FlightAware ADS-B
Thu 08:26:14 AM 50.1250 6.2090 126° Southeast 518 596 37,000  Level FlightAware ADS-B
Thu 08:26:56 AM 50.0650 6.3390 126° Southeast 519 597 37,000  Level FlightAware ADS-B
Thu 08:27:40 AM 50.0020 6.4720 126° Southeast 520 598 37,000  Level FlightAware ADS-B
Thu 08:28:20 AM 49.9450 6.5930 126° Southeast 523 602 37,000  Level FlightAware ADS-B
Thu 08:29:02 AM 49.8850 6.7220 126° Southeast 523 602 37,000  Level FlightAware ADS-B
Thu 08:29:44 AM 49.8240 6.8490 127° Southeast 522 601 37,000  Level FlightAware ADS-B
Thu 08:30:19 AM 49.7750 6.9510 127° Southeast 522 601 37,000  Level FlightAware ADS-B
Thu 08:31:02 AM 49.7120 7.0830 126° Southeast 522 601 37,000  Level FlightAware ADS-B
Thu 08:31:46 AM 49.6480 7.2140 127° Southeast 524 603 37,000  Level FlightAware ADS-B
Thu 08:32:26 AM 49.5910 7.3310 127° Southeast 524 603 37,000  Level FlightAware ADS-B
Thu 08:33:10 AM 49.5270 7.4620 127° Southeast 524 603 37,000  Level FlightAware ADS-B
Thu 08:33:40 AM 49.4830 7.5510 127° Southeast 523 602 37,000  Level FlightAware ADS-B
Thu 08:34:26 AM 49.4160 7.6900 127° Southeast 521 600 37,000  Level FlightAware ADS-B
Thu 08:35:07 AM 49.3580 7.8050 128° Southeast 520 598 37,000  Level FlightAware ADS-B
Thu 08:35:41 AM 49.3090 7.9040 127° Southeast 519 597 37,000  Level FlightAware ADS-B
Thu 08:36:26 AM 49.2420 8.0380 127° Southeast 518 596 37,000  Level FlightAware ADS-B
Thu 08:37:04 AM 49.1870 8.1490 127° Southeast 519 597 37,000  Level FlightAware ADS-B
Thu 08:38:03 AM 49.1040 8.3140 127° Southeast 515 593 37,000  Level FlightAware ADS-B
Thu 08:38:37 AM 49.0520 8.4190 127° Southeast 515 593 37,000  Level FlightAware ADS-B
Thu 08:39:24 AM 48.9810 8.5550 128° Southeast 521 600 37,000  Level FlightAware ADS-B
Thu 08:40:09 AM 48.9050 8.6750 134° Southeast 524 603 37,000  Level FlightAware ADS-B
Thu 08:40:44 AM 48.8380 8.7520 143° Southeast 524 603 37,000  Level FlightAware ADS-B
Thu 08:41:24 AM 48.7620 8.8440 141° Southeast 525 604 37,000  Level FlightAware ADS-B
Thu 08:42:09 AM 48.6780 8.9490 140° Southeast 526 605 37,000  Level FlightAware ADS-B
Thu 08:42:49 AM 48.6040 9.0400 141° Southeast 525 604 37,000  Level FlightAware ADS-B
Thu 08:43:29 AM 48.5300 9.1340 140° Southeast 525 604 37,000  Level FlightAware ADS-B
Thu 08:44:14 AM 48.4450 9.2370 141° Southeast 526 605 37,000  Level FlightAware ADS-B
Thu 08:44:54 AM 48.3680 9.3290 142° Southeast 524 603 37,000  Level FlightAware ADS-B
Thu 08:45:49 AM 48.2960 9.4140 142° Southeast 521 600 37,000  Level FlightAware ADS-B
Thu 08:46:25 AM 48.1990 9.5290 142° Southeast 518 596 37,000  Level FlightAware ADS-B
Thu 08:47:06 AM 48.1400 9.6080 138° Southeast 518 596 37,000  Level FlightAware ADS-B
Thu 08:47:50 AM 48.0470 9.7310 138° Southeast 517 595 37,000  Level FlightAware ADS-B
Thu 08:48:30 AM 47.9740 9.8240 140° Southeast 518 596 37,000  Level FlightAware ADS-B
Thu 08:49:17 AM 47.8830 9.9220 144° Southeast 524 603 37,000  Level FlightAware ADS-B
Thu 08:49:57 AM 47.7890 9.9750 159° South 523 602 37,000  Level FlightAware ADS-B
Thu 08:50:39 AM 47.7010 10.0210 161° South 524 603 37,000  Level FlightAware ADS-B
Thu 08:51:16 AM 47.6120 10.0690 160° South 525 604 37,000  Level FlightAware ADS-B
Thu 08:51:57 AM 47.5360 10.1100 160° South 526 605 37,000  Level FlightAware ADS-B
Thu 08:52:37 AM 47.4370 10.1630 160° South 528 608 37,000  Level FlightAware ADS-B
Thu 08:53:18 AM 47.3510 10.2090 160° South 529 609 37,000  Level FlightAware ADS-B
Thu 08:53:59 AM 47.2410 10.2850 155° Southeast 526 605 37,000  Level FlightAware ADS-B
Thu 08:54:38 AM 47.1700 10.3750 139° Southeast 529 609 37,000  Level FlightAware ADS-B
Thu 08:55:20 AM 47.0950 10.4760 137° Southeast 525 604 37,000  Level FlightAware ADS-B
Thu 08:56:02 AM 47.0160 10.5790 138° Southeast 531 611 37,000  Level FlightAware ADS-B
Thu 08:56:44 AM 46.9440 10.6870 134° Southeast 531 611 37,000  Level FlightAware ADS-B
Thu 08:57:24 AM 46.8760 10.7900 134° Southeast 531 611 37,000  Level FlightAware ADS-B
Thu 08:58:09 AM 46.8000 10.9030 134° Southeast 531 611 37,000  Level FlightAware ADS-B
Thu 08:58:44 AM 46.7400 10.9920 135° Southeast 532 612 37,000  Level FlightAware ADS-B
Thu 08:59:28 AM 46.6670 11.0980 135° Southeast 531 611 37,000  Level FlightAware ADS-B
Thu 09:00:18 AM 46.5930 11.2040 135° Southeast 526 605 37,000  Level FlightAware ADS-B
Thu 09:01:03 AM 46.4960 11.3450 135° Southeast 527 606 37,000  Level FlightAware ADS-B
Thu 09:01:48 AM 46.4200 11.4530 136° Southeast 528 608 37,000  Level FlightAware ADS-B
Thu 09:02:28 AM 46.3500 11.5540 135° Southeast 528 608 37,000  Level FlightAware ADS-B
Thu 09:03:08 AM 46.2780 11.6560 136° Southeast 527 606 37,000  Level FlightAware ADS-B
Thu 09:03:48 AM 46.2090 11.7570 135° Southeast 526 605 37,000  Level FlightAware ADS-B
Thu 09:04:34 AM 46.1290 11.8710 135° Southeast 529 609 37,000  Level FlightAware ADS-B
Thu 09:05:29 AM 46.0340 12.0090 135° Southeast 527 606 37,000  Level FlightAware ADS-B
Thu 09:07:25 AM 45.8610 12.2640 134° Southeast 517 595 37,000  Level FlightAware ADS-B
Thu 09:10:00 AM 45.6708 12.7226 121° Southeast  Level Estimated
Thu 09:11:00 AM 45.5966 12.8993 121° Southeast  Level Estimated
Thu 09:12:00 AM 45.5222 13.0755 121° Southeast  Level Estimated
Thu 09:13:00 AM 45.4475 13.2513 121° Southeast  Level Estimated
Thu 09:14:00 AM 45.3726 13.4265 121° Southeast  Level Estimated
Thu 09:15:00 AM 45.2974 13.6013 121° Southeast  Level Estimated
Thu 09:16:00 AM 45.2219 13.7757 122° Southeast  Level Estimated
Thu 09:16:28 AM 45.1880 13.7510 122° Southeast 493 567 37,000  Level FlightAware ADS-B
Thu 09:18:10 AM 45.0350 14.0400 127° Southeast 489 563 37,000  Level FlightAware ADS-B
Thu 09:18:49 AM 44.9720 14.1580 127° Southeast 490 564 37,000  Level FlightAware ADS-B
Thu 09:19:29 AM 44.9140 14.2630 128° Southeast 489 563 37,000  Level FlightAware ADS-B
Thu 09:20:21 AM 44.8350 14.4080 128° Southeast 490 564 37,000  Level FlightAware ADS-B
Thu 09:21:01 AM 44.7880 14.4950 127° Southeast 494 568 37,000  Level FlightAware ADS-B
Thu 09:21:42 AM 44.7330 14.5930 128° Southeast 493 567 37,000  Level FlightAware ADS-B
Thu 09:22:41 AM 44.6410 14.7580 128° Southeast 490 564 37,000  Level FlightAware ADS-B
Thu 09:23:21 AM 44.5840 14.8610 128° Southeast 493 567 37,000  Level FlightAware ADS-B
Thu 09:24:16 AM 44.5070 14.9990 128° Southeast 486 559 37,000  Level FlightAware ADS-B
Thu 09:24:51 AM 44.4590 15.0920 126° Southeast 485 558 37,000  Level FlightAware ADS-B
Thu 09:25:41 AM 44.4080 15.2290 117° Southeast 488 562 37,000  Level FlightAware ADS-B
Thu 09:26:16 AM 44.3750 15.3160 118° Southeast 488 562 37,000  Level FlightAware ADS-B
Thu 09:26:58 AM 44.3300 15.4390 117° Southeast 488 562 37,000  Level FlightAware ADS-B
Thu 09:27:56 AM 44.2660 15.6090 118° Southeast 488 562 37,000  Level FlightAware ADS-B
Thu 09:28:36 AM 44.2260 15.7150 118° Southeast 487 560 37,000  Level FlightAware ADS-B
Thu 09:29:16 AM 44.1840 15.8300 117° Southeast 488 562 37,000  Level FlightAware ADS-B
Thu 09:30:15 AM 44.1340 15.9870 114° Southeast 487 560 37,000  Level FlightAware ADS-B
Thu 09:30:54 AM 44.0920 16.1160 114° Southeast 488 562 37,000  Level FlightAware ADS-B
Thu 09:31:36 AM 44.0540 16.2330 114° Southeast 488 562 37,000  Level FlightAware ADS-B
Thu 09:32:20 AM 44.0140 16.3590 114° Southeast 490 564 37,000  Level FlightAware ADS-B
Thu 09:33:00 AM 43.9770 16.4740 114° Southeast 490 564 37,000  Level FlightAware ADS-B
Thu 09:33:41 AM 43.9400 16.5890 114° Southeast 491 565 37,000  Level FlightAware ADS-B
Thu 09:34:21 AM 43.9020 16.7070 114° Southeast 490 564 37,000  Level FlightAware ADS-B
Thu 09:35:06 AM 43.8440 16.8220 125° Southeast 488 562 37,000  Level FlightAware ADS-B
Thu 09:35:31 AM 43.8070 16.8820 131° Southeast 481 554 37,000  Level FlightAware ADS-B
Thu 09:35:56 AM 43.7670 16.9370 124° Southeast 486 559 37,000  Level FlightAware ADS-B
Thu 09:38:00 AM 43.6066 17.2931 124° Southeast  Level Estimated
Thu 09:38:59 AM 43.4750 17.3000 138° Southeast 486 559 37,000  Level FlightAware ADS-B
Thu 09:39:50 AM 43.3730 17.4250 138° Southeast 485 558 37,000  Level FlightAware ADS-B
Thu 09:40:27 AM 43.3120 17.4990 139° Southeast 485 558 37,000  Level FlightAware ADS-B
Thu 09:41:24 AM 43.2250 17.6050 138° Southeast 480 552 37,000  Level FlightAware ADS-B
Thu 09:42:08 AM 43.1460 17.7010 138° Southeast 480 552 37,000  Level FlightAware ADS-B
Thu 09:42:47 AM 43.0870 17.7720 139° Southeast 480 552 37,000  Level FlightAware ADS-B
Thu 09:43:28 AM 43.0100 17.8640 139° Southeast 485 558 37,000  Level FlightAware ADS-B
Thu 09:44:14 AM 42.9280 17.9630 139° Southeast 486 559 37,000  Level FlightAware ADS-B
Thu 09:44:54 AM 42.8600 18.0440 139° Southeast 484 557 37,000  Level FlightAware ADS-B
Thu 09:45:36 AM 42.7890 18.1280 139° Southeast 482 555 37,000  Level FlightAware ADS-B
Thu 09:46:14 AM 42.7280 18.2020 138° Southeast 481 554 37,000  Level FlightAware ADS-B
Thu 09:47:02 AM 42.6460 18.3000 139° Southeast 482 555 37,000  Level FlightAware ADS-B
Thu 09:47:42 AM 42.5780 18.3790 139° Southeast 484 557 37,000  Level FlightAware ADS-B
Thu 09:48:24 AM 42.5090 18.4610 139° Southeast 486 559 37,000  Level FlightAware ADS-B
Thu 09:49:06 AM 42.4360 18.5470 139° Southeast 488 562 37,000  Level FlightAware ADS-B
Thu 09:49:50 AM 42.3610 18.6360 139° Southeast 491 565 37,000  Level FlightAware ADS-B
Thu 09:50:30 AM 42.2930 18.7140 140° Southeast 494 568 37,000  Level FlightAware ADS-B
Thu 09:51:14 AM 42.2160 18.8050 139° Southeast 494 568 37,000  Level FlightAware ADS-B
Thu 09:51:54 AM 42.1460 18.8850 140° Southeast 493 567 37,000  Level FlightAware ADS-B
Thu 09:52:30 AM 42.0850 18.9550 140° Southeast 494 568 37,000  Level FlightAware ADS-B
Thu 09:53:14 AM 42.0080 19.0460 139° Southeast 495 570 37,000  Level FlightAware ADS-B
Thu 09:53:56 AM 41.9340 19.1300 140° Southeast 496 571 37,000  Level FlightAware ADS-B
Thu 09:54:32 AM 41.8710 19.2020 140° Southeast 497 572 37,000  Level FlightAware ADS-B
Thu 09:55:12 AM 41.8010 19.2820 140° Southeast 497 572 37,000  Level FlightAware ADS-B
Thu 09:55:56 AM 41.7230 19.3700 140° Southeast 498 573 37,000  Level FlightAware ADS-B
Thu 09:56:28 AM 41.6690 19.4320 139° Southeast 498 573 37,000  Level FlightAware ADS-B
Thu 09:57:11 AM 41.5930 19.5180 140° Southeast 498 573 37,000  Level FlightAware ADS-B
Thu 09:57:52 AM 41.5220 19.5990 139° Southeast 498 573 37,000  Level FlightAware ADS-B
Thu 09:58:34 AM 41.4490 19.6800 140° Southeast 497 572 37,000  Level FlightAware ADS-B
Thu 09:59:18 AM 41.3730 19.7740 137° Southeast 500 575 37,000  Level FlightAware ADS-B
Thu 09:59:56 AM 41.3120 19.8580 134° Southeast 501 577 37,000  Level FlightAware ADS-B
Thu 10:00:42 AM 41.2370 19.9590 135° Southeast 504 580 37,000  Level FlightAware ADS-B
Thu 10:01:18 AM 41.1800 20.0360 135° Southeast 504 580 37,000  Level FlightAware ADS-B
Thu 10:01:58 AM 41.1120 20.1270 135° Southeast 507 583 37,000  Level FlightAware ADS-B
Thu 10:02:36 AM 41.0490 20.2100 135° Southeast 507 583 37,000  Level FlightAware ADS-B
Thu 10:03:22 AM 40.9720 20.3110 135° Southeast 508 585 37,000  Level FlightAware ADS-B
Thu 10:04:02 AM 40.9050 20.4020 134° Southeast 510 587 37,000  Level FlightAware ADS-B
Thu 10:04:48 AM 40.8270 20.5030 136° Southeast 511 588 37,000  Level FlightAware ADS-B
Thu 10:05:30 AM 40.7570 20.5960 135° Southeast 513 590 37,000  Level FlightAware ADS-B
Thu 10:06:06 AM 40.7000 20.6710 135° Southeast 514 592 37,000  Level FlightAware ADS-B
Thu 10:06:44 AM 40.6320 20.7590 136° Southeast 513 590 37,000  Level FlightAware ADS-B
Thu 10:07:26 AM 40.5610 20.8520 135° Southeast 517 595 37,000  Level FlightAware ADS-B
Thu 10:08:10 AM 40.4870 20.9460 136° Southeast 517 595 37,000  Level FlightAware ADS-B
Thu 10:08:46 AM 40.4240 21.0220 137° Southeast 513 590 37,000  Level FlightAware ADS-B
Thu 10:09:06 AM 40.3860 21.0650 139° Southeast 512 589 37,000  Level FlightAware ADS-B
Thu 10:09:41 AM 40.3480 21.1080 139° Southeast 513 590 37,000  Level FlightAware ADS-B
Thu 10:11:41 AM 40.1320 21.3550 139° Southeast 517 595 37,000  Level FlightAware ADS-B
Thu 10:12:26 AM 40.0320 21.4870 135° Southeast 526 605 37,000  Level FlightAware ADS-B
Thu 10:13:08 AM 39.9650 21.5830 132° Southeast 526 605 37,000  Level FlightAware ADS-B
Thu 10:13:44 AM 39.9060 21.6680 132° Southeast 527 606 37,000  Level FlightAware ADS-B
Thu 10:14:24 AM 39.8410 21.7650 131° Southeast 525 604 37,000  Level FlightAware ADS-B
Thu 10:15:19 AM 39.7520 21.8930 132° Southeast 527 606 37,000  Level FlightAware ADS-B
Thu 10:15:54 AM 39.6950 21.9760 132° Southeast 529 609 37,000  Level FlightAware ADS-B
Thu 10:16:40 AM 39.6200 22.0870 131° Southeast 529 609 37,000  Level FlightAware ADS-B
Thu 10:17:20 AM 39.5550 22.1820 132° Southeast 529 609 37,000  Level FlightAware ADS-B
Thu 10:18:04 AM 39.4840 22.2830 132° Southeast 531 611 37,000  Level FlightAware ADS-B
Thu 10:18:44 AM 39.4180 22.3780 132° Southeast 531 611 37,000  Level FlightAware ADS-B
Thu 10:19:28 AM 39.3450 22.4820 132° Southeast 533 613 37,000  Level FlightAware ADS-B
Thu 10:20:06 AM 39.2850 22.5700 131° Southeast 534 615 37,000  Level FlightAware ADS-B
Thu 10:20:44 AM 39.2200 22.6620 132° Southeast 535 616 37,000  Level FlightAware ADS-B
Thu 10:21:24 AM 39.1540 22.7540 133° Southeast 537 618 37,000  Level FlightAware ADS-B
Thu 10:22:05 AM 39.0860 22.8520 132° Southeast 540 621 37,000  Level FlightAware ADS-B
Thu 10:22:49 AM 39.0100 22.9590 132° Southeast 541 623 37,000  Level FlightAware ADS-B
Thu 10:23:33 AM 38.9350 23.0640 133° Southeast 543 625 37,000  Level FlightAware ADS-B
Thu 10:24:13 AM 38.8660 23.1610 132° Southeast 544 626 37,000  Level FlightAware ADS-B
Thu 10:24:54 AM 38.7980 23.2570 132° Southeast 544 626 37,000  Level FlightAware ADS-B
Thu 10:25:28 AM 38.7390 23.3400 132° Southeast 544 626 37,000  Level FlightAware ADS-B
Thu 10:26:14 AM 38.6610 23.4480 133° Southeast 543 625 37,000  Level FlightAware ADS-B
Thu 10:26:54 AM 38.5930 23.5430 132° Southeast 542 624 37,000  Level FlightAware ADS-B
Thu 10:27:30 AM 38.5310 23.6280 133° Southeast 542 624 37,000  Level FlightAware ADS-B
Thu 10:28:10 AM 38.4630 23.7220 133° Southeast 542 624 37,000  Level FlightAware ADS-B
Thu 10:28:54 AM 38.3880 23.8250 133° Southeast 542 624 37,000  Level FlightAware ADS-B
Thu 10:29:36 AM 38.3180 23.9210 133° Southeast 541 623 37,000  Level FlightAware ADS-B
Thu 10:30:29 AM 38.2270 24.0440 133° Southeast 538 619 37,000  Level FlightAware ADS-B
Thu 10:31:15 AM 38.1490 24.1500 133° Southeast 538 619 37,000  Level FlightAware ADS-B
Thu 10:31:54 AM 38.0820 24.2420 133° Southeast 536 617 37,000  Level FlightAware ADS-B
Thu 10:32:28 AM 38.0260 24.3220 132° Southeast 540 621 37,000  Level FlightAware ADS-B
Thu 10:33:12 AM 37.9590 24.4330 127° Southeast 542 624 37,000  Level FlightAware ADS-B
Thu 10:33:56 AM 37.8930 24.5460 126° Southeast 541 623 37,000  Level FlightAware ADS-B
Thu 10:34:28 AM 37.8470 24.6280 125° Southeast 541 623 37,000  Level FlightAware ADS-B
Thu 10:35:12 AM 37.7830 24.7420 125° Southeast 542 624 37,000  Level FlightAware ADS-B
Thu 10:35:52 AM 37.7240 24.8450 126° Southeast 542 624 37,000  Level FlightAware ADS-B
Thu 10:36:37 AM 37.6610 24.9580 125° Southeast 541 623 37,000  Level FlightAware ADS-B
Thu 10:37:16 AM 37.6030 25.0580 126° Southeast 540 621 37,000  Level FlightAware ADS-B
Thu 10:38:00 AM 37.5390 25.1730 125° Southeast 541 623 37,000  Level FlightAware ADS-B
Thu 10:38:40 AM 37.4810 25.2750 126° Southeast 540 621 37,000  Level FlightAware ADS-B
Thu 10:39:20 AM 37.4230 25.3770 126° Southeast 539 620 37,000  Level FlightAware ADS-B
Thu 10:39:58 AM 37.3670 25.4710 127° Southeast 538 619 37,000  Level FlightAware ADS-B
Thu 10:40:42 AM 37.3030 25.5830 126° Southeast 539 620 37,000  Level FlightAware ADS-B
Thu 10:41:22 AM 37.2450 25.6840 126° Southeast 540 621 37,000  Level FlightAware ADS-B
Thu 10:42:06 AM 37.1790 25.7990 126° Southeast 541 623 37,000  Level FlightAware ADS-B
Thu 10:42:46 AM 37.1210 25.8970 127° Southeast 541 623 37,000  Level FlightAware ADS-B
Thu 10:43:28 AM 37.0580 26.0060 126° Southeast 542 624 37,000  Level FlightAware ADS-B
Thu 10:44:10 AM 36.9960 26.1130 126° Southeast 543 625 37,000  Level FlightAware ADS-B
Thu 10:44:50 AM 36.9360 26.2140 127° Southeast 543 625 37,000  Level FlightAware ADS-B
Thu 10:45:32 AM 36.8740 26.3200 126° Southeast 544 626 37,000  Level FlightAware ADS-B
Thu 10:46:17 AM 36.8080 26.4320 126° Southeast 544 626 37,000  Level FlightAware ADS-B
Thu 10:47:13 AM 36.7230 26.5750 127° Southeast 544 626 37,000  Level FlightAware ADS-B
Thu 10:47:39 AM 36.6850 26.6380 127° Southeast 544 626 37,000  Level FlightAware ADS-B
Thu 10:48:21 AM 36.6200 26.7470 127° Southeast 544 626 37,000  Level FlightAware ADS-B
Thu 10:48:56 AM 36.5690 26.8340 126° Southeast 543 625 37,000  Level FlightAware ADS-B
Thu 10:49:40 AM 36.5020 26.9440 127° Southeast 542 624 37,000  Level FlightAware ADS-B
Thu 10:50:31 AM 36.4270 27.0690 127° Southeast 541 623 37,000  Level FlightAware ADS-B
Thu 10:51:19 AM 36.3610 27.1790 127° Southeast 541 623 37,000  Level FlightAware ADS-B
Thu 10:51:56 AM 36.3150 27.2580 126° Southeast 541 623 37,000  Level FlightAware ADS-B
Thu 10:52:44 AM 36.2550 27.3600 126° Southeast 541 623 37,000  Level FlightAware ADS-B
Thu 10:53:20 AM 36.2100 27.4370 126° Southeast 541 623 37,000  Level FlightAware ADS-B
Thu 10:54:08 AM 36.1500 27.5390 126° Southeast 541 623 37,000  Level FlightAware ADS-B
Thu 10:54:44 AM 36.1050 27.6160 126° Southeast 541 623 37,000  Level FlightAware ADS-B
Thu 10:55:32 AM 36.0450 27.7180 126° Southeast 541 623 37,000  Level FlightAware ADS-B
Thu 10:56:09 AM 35.9990 27.7970 126° Southeast 541 623 37,000 72 Level FlightAware ADS-B
Thu 10:56:55 AM 35.8500 28.0140 130° Southeast 537 618 37,100  Climbing FlightAware ADS-B
Thu 10:57:35 AM 35.7880 28.1130 128° Southeast 537 618 37,000 -73 Descending FlightAware ADS-B
Thu 10:58:17 AM 35.7260 28.2130 127° Southeast 537 618 37,000 70 Level FlightAware ADS-B
Thu 10:59:01 AM 35.6580 28.3220 127° Southeast 538 619 37,100 70 Climbing FlightAware ADS-B
Thu 10:59:43 AM 35.5950 28.4240 127° Southeast 539 620 37,100 -75 Level FlightAware ADS-B
Thu 11:00:21 AM 35.5370 28.5130 129° Southeast 538 619 37,000 -81 Descending FlightAware ADS-B
Thu 11:00:57 AM 35.4820 28.6030 127° Southeast 537 618 37,000 75 Level FlightAware ADS-B
Thu 11:01:41 AM 35.4150 28.7090 128° Southeast 536 617 37,100  Climbing FlightAware ADS-B
Thu 11:02:17 AM 35.3610 28.7930 128° Southeast 534 615 37,000 -79 Descending FlightAware ADS-B
Thu 11:02:57 AM 35.3010 28.8880 128° Southeast 534 615 37,000 75 Level FlightAware ADS-B
Thu 11:03:37 AM 35.2390 28.9860 128° Southeast 534 615 37,100  Climbing FlightAware ADS-B
Thu 11:04:32 AM 35.1620 29.1080 128° Southeast 533 613 37,000  Descending FlightAware ADS-B
Thu 11:05:11 AM 35.0990 29.2050 128° Southeast 529 609 37,100 79 Climbing FlightAware ADS-B
Thu 11:05:48 AM 35.0530 29.2800 127° Southeast 529 609 37,100 -62 Level FlightAware ADS-B
Thu 11:06:48 AM 34.9620 29.4190 129° Southeast 528 608 37,000  Descending FlightAware ADS-B
Thu 11:07:28 AM 34.8910 29.5270 129° Southeast 528 608 37,100 71 Climbing FlightAware ADS-B
Thu 11:08:12 AM 34.8220 29.6350 128° Southeast 527 606 37,100 -71 Level FlightAware ADS-B
Thu 11:08:53 AM 34.7640 29.7220 129° Southeast 526 605 37,000 -67 Descending FlightAware ADS-B
Thu 11:09:42 AM 34.6860 29.8450 128° Southeast 529 609 37,000  Level FlightAware ADS-B
Thu 11:10:41 AM 34.6240 29.9800 119° Southeast 530 610 37,000  Level FlightAware ADS-B
Thu 11:11:17 AM 34.5890 30.0610 118° Southeast 530 610 37,000 79 Level FlightAware ADS-B
Thu 11:11:57 AM 34.5320 30.1780 121° Southeast 529 609 37,100  Climbing FlightAware ADS-B
Thu 11:12:44 AM 34.4640 30.3110 122° Southeast 515 593 37,000 -65 Descending FlightAware ADS-B
Thu 11:13:30 AM 34.4120 30.4180 120° Southeast 511 588 37,000  Level FlightAware ADS-B
Thu 11:14:05 AM 34.3640 30.5150 121° Southeast 510 587 37,000  Level FlightAware ADS-B
Thu 11:14:51 AM 34.3080 30.6280 121° Southeast 510 587 37,000  Level FlightAware ADS-B
Thu 11:16:51 AM 34.1620 30.9240 122° Southeast 510 587 37,000  Level FlightAware ADS-B
Thu 11:17:00 AM 34.1446 30.9470 122° Southeast  Level Estimated
Thu 11:17:32 AM 34.1120 31.0250 121° Southeast 510 587 37,000  Level FlightAware ADS-B
Thu 11:18:13 AM 34.0640 31.1210 121° Southeast 510 587 37,000  Level FlightAware ADS-B
Thu 11:18:53 AM 34.0130 31.2240 121° Southeast 509 586 37,000  Level FlightAware ADS-B
Thu 11:19:39 AM 33.9560 31.3360 122° Southeast 509 586 37,000  Level FlightAware ADS-B
Thu 11:20:18 AM 33.9080 31.4320 121° Southeast 509 586 37,000  Level FlightAware ADS-B
Thu 11:21:03 AM 33.8530 31.5420 121° Southeast 508 585 37,000  Level FlightAware ADS-B
Thu 11:21:43 AM 33.8060 31.6370 121° Southeast 508 585 37,000  Level FlightAware ADS-B
Thu 11:22:29 AM 33.7470 31.7510 122° Southeast 508 585 37,000  Level FlightAware ADS-B
Thu 11:23:10 AM 33.6970 31.8510 121° Southeast 508 585 37,000  Level FlightAware ADS-B
Thu 11:23:44 AM 33.6560 31.9310 122° Southeast 508 585 37,000  Level FlightAware ADS-B
Thu 11:24:24 AM 33.6050 32.0300 122° Southeast 507 583 37,000  Level FlightAware ADS-B
Thu 11:25:09 AM 33.5500 32.1390 121° Southeast 505 581 37,000  Level FlightAware ADS-B
Thu 11:25:45 AM 33.5090 32.2180 122° Southeast 505 581 37,000  Level FlightAware ADS-B
Thu 11:26:34 AM 33.4490 32.3360 121° Southeast 504 580 37,000  Level FlightAware ADS-B
Thu 11:27:14 AM 33.4010 32.4290 122° Southeast 503 579 37,000 -62 Level FlightAware ADS-B
Thu 11:28:11 AM 33.3320 32.5650 121° Southeast 501 577 36,900 -1,140 Descending FlightAware ADS-B
Thu 11:28:54 AM 33.2720 32.6780 122° Southeast 500 575 35,100 -2,386 Descending FlightAware ADS-B
Thu 11:29:34 AM 33.2240 32.7710 122° Southeast 491 565 33,600 -2,139 Descending FlightAware ADS-B
Thu 11:30:35 AM 33.1540 32.9030 122° Southeast 486 559 31,500 -2,143 Descending FlightAware ADS-B
Thu 11:31:40 AM 33.0760 33.0530 122° Southeast 471 542 29,100 -2,214 Descending FlightAware ADS-B
Thu 11:32:18 AM 33.0320 33.1350 123° Southeast 461 531 27,700 -1,483 Descending FlightAware ADS-B
Thu 11:33:09 AM 32.9800 33.2380 121° Southeast 457 526 26,900 -1,515 Descending FlightAware ADS-B
Thu 11:34:01 AM 32.9230 33.3440 123° Southeast 437 503 25,100 -2,485 Descending FlightAware ADS-B
Thu 11:34:48 AM 32.8690 33.4440 123° Southeast 416 479 22,800 -2,400 Descending FlightAware ADS-B
Thu 11:35:26 AM 32.8320 33.5140 122° Southeast 406 467 21,700 -1,800 Descending FlightAware ADS-B
Thu 11:36:08 AM 32.7870 33.5970 123° Southeast 406 467 20,400 -1,846 Descending FlightAware ADS-B
Thu 11:36:44 AM 32.7530 33.6620 122° Southeast 412 474 19,300 -1,895 Descending FlightAware ADS-B
Thu 11:37:24 AM 32.7100 33.7410 123° Southeast 402 463 18,000 -1,857 Descending FlightAware ADS-B
Thu 11:38:08 AM 32.6680 33.8210 122° Southeast 391 450 16,700 -1,846 Descending FlightAware ADS-B
Thu 11:38:42 AM 32.6360 33.8820 122° Southeast 384 442 15,600 -1,816 Descending FlightAware ADS-B
Thu 11:39:24 AM 32.5950 33.9570 123° Southeast 373 429 14,400 -1,674 Descending FlightAware ADS-B
Thu 11:40:08 AM 32.5560 34.0300 122° Southeast 362 417 13,200 -1,650 Descending FlightAware ADS-B
Thu 11:40:44 AM 32.5240 34.0880 123° Southeast 354 407 12,200 -1,500 Descending FlightAware ADS-B
Thu 11:41:24 AM 32.4870 34.1530 124° Southeast 339 390 11,300 -1,143 Descending FlightAware ADS-B
Thu 11:42:08 AM 32.4430 34.2100 132° Southeast 309 356 10,600 -1,286 Descending FlightAware ADS-B
Thu 11:42:34 AM 32.4170 34.2410 135° Southeast 304 350 9,800 -1,556 Descending FlightAware ADS-B
Thu 11:43:02 AM 32.3890 34.2740 135° Southeast 303 349 9,200 -818 Descending FlightAware ADS-B
Thu 11:43:40 AM 32.3560 34.3130 135° Southeast 301 346 8,900 -1,371 Descending FlightAware ADS-B
Thu 11:44:12 AM 32.3190 34.3560 136° Southeast 293 337 7,600 -1,300 Descending FlightAware ADS-B
Thu 11:44:40 AM 32.2960 34.3830 135° Southeast 293 337 7,600 -689 Level FlightAware ADS-B
Thu 11:47:00 AM 32.0870 34.6939 125° Southeast  Level FlightAware Approximate
Thu 11:47:41 AM 32.1540 34.6070 125° Southeast 281 323 5,200  Level FlightAware ADS-B
Thu 11:48:05 AM 32.1370 34.6380 123° Southeast 282 325 5,200  Level FlightAware ADS-B
Thu 11:48:29 AM 32.1230 34.6640 122° Southeast 274 315 5,200  Level FlightAware ADS-B
Thu 11:48:54 AM 32.1040 34.6980 123° Southeast 260 299 5,200  Level FlightAware ADS-B
Thu 11:49:24 AM 32.0840 34.7350 123° Southeast 245 282 5,200  Level FlightAware ADS-B
Thu 11:49:52 AM 32.0680 34.7630 124° Southeast 238 274 5,200 -103 Level FlightAware ADS-B
Thu 11:50:22 AM 32.0450 34.7920 133° Southeast 238 274 5,100 -310 Descending FlightAware ADS-B
Thu 11:50:50 AM 32.0230 34.8180 135° Southeast 223 257 4,900 -508 Descending FlightAware ADS-B
Thu 11:51:21 AM 32.0020 34.8420 136° Southeast 206 237 4,600 -915 Descending FlightAware ADS-B
Thu 11:51:49 AM 31.9840 34.8630 135° Southeast 205 236 4,000 -1,500 Descending FlightAware ADS-B
Thu 11:52:13 AM 31.9730 34.8870 118° Southeast 195 224 3,300 -1,222 Descending FlightAware ADS-B
Thu 11:52:43 AM 31.9780 34.9160 79° East 170 196 2,900 -724 Descending FlightAware ADS-B
Thu 11:53:11 AM 31.9830 34.9370 74° East 171 197 2,600 -321 Descending FlightAware ADS-B
Thu 11:53:39 AM 31.9870 34.9590 78° East 171 197 2,600  Level FlightAware ADS-B
Thu 11:56:00 AM 32.0095 34.8769 288° West  Level Estimated

Login

Don't have an account? Register now (free) for customized features, flight alerts, and more!